MSR9905 KBFI-BIKF
Flight info
| Callsign | MSR9905 |
|---|---|
| Flight time | 7h 37m |
| Altitude | 39000 |
| Route | ALPSE DCT YXC DCT 5130N11000W 55N100W 58N090W DCT RONPU DCT BEPEG DCT MUSVA/M080F390 DCT 64N060W 65N050W 65N040W 64N030W DCT GIRUG GIRUG4N |
| Aircraft | B38M/M-SDE1FGHILORVWXY/HB1 |
Departure
| Time | 2026-05-06 01:11 |
|---|---|
| Airport | King County International Airport - Boeing Field (KBFI) |
Arrival
| Time | 2026-05-06 08:48 |
|---|---|
| Airport | Keflavik International Airport (BIKF) |
| Time | Latitude | Longitude | Altitude | Speed | Heading |
|---|---|---|---|---|---|
| 2026-05-06 00:30 | 47.53704 | -122.31296 | 23 ft | 0 kts | 271° |
| 2026-05-06 00:58 | 47.53704 | -122.31300 | 23 ft | 2 kts | 272° |
| 2026-05-06 00:58 | 47.53704 | -122.31304 | 23 ft | 0 kts | 272° |
| 2026-05-06 01:01 | 47.53704 | -122.31291 | 40 ft | 4 kts | 275° |
| 2026-05-06 01:02 | 47.53698 | -122.31253 | 16 ft | 4 kts | 295° |
| 2026-05-06 01:02 | 47.53683 | -122.31222 | 24 ft | 4 kts | 321° |
| 2026-05-06 01:02 | 47.53672 | -122.31210 | 27 ft | 1 kts | 330° |
| 2026-05-06 01:02 | 47.53671 | -122.31209 | 27 ft | 0 kts | 330° |
| 2026-05-06 01:07 | 47.53688 | -122.31224 | 25 ft | 4 kts | 330° |
| 2026-05-06 01:07 | 47.53722 | -122.31253 | 26 ft | 8 kts | 329° |
| 2026-05-06 01:07 | 47.53778 | -122.31302 | 25 ft | 11 kts | 329° |
| 2026-05-06 01:08 | 47.53852 | -122.31366 | 26 ft | 13 kts | 329° |
| 2026-05-06 01:08 | 47.53940 | -122.31366 | 24 ft | 15 kts | 57° |
| 2026-05-06 01:08 | 47.53987 | -122.31234 | 27 ft | 7 kts | 61° |
| 2026-05-06 01:08 | 47.53987 | -122.31233 | 27 ft | 0 kts | 61° |
| 2026-05-06 01:09 | 47.53989 | -122.31229 | 28 ft | 1 kts | 61° |
| 2026-05-06 01:09 | 47.53997 | -122.31206 | 27 ft | 6 kts | 61° |
| 2026-05-06 01:10 | 47.54019 | -122.31099 | 29 ft | 5 kts | 127° |
| 2026-05-06 01:10 | 47.53966 | -122.31059 | 28 ft | 20 kts | 150° |
| 2026-05-06 01:10 | 47.53771 | -122.30894 | 27 ft | 82 kts | 150° |
| 2026-05-06 01:10 | 47.52999 | -122.30254 | 42 ft | 161 kts | 153° |
| 2026-05-06 01:11 | 47.51900 | -122.29308 | 466 ft | 202 kts | 150° |
| 2026-05-06 01:11 | 47.50694 | -122.28269 | 1649 ft | 197 kts | 151° |
| 2026-05-06 01:11 | 47.49452 | -122.27184 | 2312 ft | 219 kts | 150° |
| 2026-05-06 01:11 | 47.48068 | -122.25951 | 2831 ft | 247 kts | 150° |
| 2026-05-06 01:12 | 47.46589 | -122.24662 | 3874 ft | 252 kts | 149° |
| 2026-05-06 01:12 | 47.45002 | -122.23325 | 4645 ft | 270 kts | 150° |
| 2026-05-06 01:12 | 47.43345 | -122.21951 | 5434 ft | 282 kts | 150° |
| 2026-05-06 01:12 | 47.41639 | -122.20469 | 5819 ft | 286 kts | 142° |
| 2026-05-06 01:13 | 47.40460 | -122.18223 | 5837 ft | 277 kts | 108° |
| 2026-05-06 01:13 | 47.40310 | -122.15436 | 5935 ft | 275 kts | 74° |
| 2026-05-06 01:13 | 47.41187 | -122.13002 | 6622 ft | 271 kts | 48° |
| 2026-05-06 01:13 | 47.42613 | -122.11177 | 7574 ft | 273 kts | 27° |
| 2026-05-06 01:14 | 47.46340 | -122.10449 | 9546 ft | 278 kts | 360° |
| 2026-05-06 01:14 | 47.48272 | -122.10424 | 10408 ft | 286 kts | 0° |
| 2026-05-06 01:14 | 47.50353 | -122.10369 | 10933 ft | 305 kts | 1° |
| 2026-05-06 01:15 | 47.52524 | -122.10293 | 11436 ft | 323 kts | 1° |
| 2026-05-06 01:15 | 47.54775 | -122.10211 | 12110 ft | 332 kts | 1° |
| 2026-05-06 01:15 | 47.57101 | -122.10134 | 13085 ft | 334 kts | 1° |
| 2026-05-06 01:15 | 47.59438 | -122.10059 | 13946 ft | 338 kts | 1° |
| 2026-05-06 01:16 | 47.61791 | -122.09985 | 14754 ft | 341 kts | 0° |
| 2026-05-06 01:16 | 47.64176 | -122.09911 | 15564 ft | 344 kts | 0° |
| 2026-05-06 01:16 | 47.66582 | -122.09837 | 16366 ft | 347 kts | 0° |
| 2026-05-06 01:16 | 47.69015 | -122.09763 | 17160 ft | 350 kts | 0° |
| 2026-05-06 01:17 | 47.71422 | -122.09689 | 17921 ft | 353 kts | 0° |
| 2026-05-06 01:17 | 47.73892 | -122.09614 | 18650 ft | 356 kts | 0° |
| 2026-05-06 01:17 | 47.76362 | -122.09539 | 19317 ft | 359 kts | 0° |
| 2026-05-06 01:17 | 47.78882 | -122.09463 | 19960 ft | 362 kts | 0° |
| 2026-05-06 01:18 | 47.81397 | -122.09387 | 20608 ft | 365 kts | 0° |
| 2026-05-06 01:18 | 47.83957 | -122.09310 | 21240 ft | 368 kts | 0° |
| 2026-05-06 01:18 | 47.86531 | -122.09233 | 21858 ft | 371 kts | 0° |
| 2026-05-06 01:18 | 47.89137 | -122.09155 | 22441 ft | 376 kts | 0° |
| 2026-05-06 01:19 | 47.91748 | -122.09076 | 23062 ft | 378 kts | 0° |
| 2026-05-06 01:19 | 47.94343 | -122.08998 | 23740 ft | 379 kts | 0° |
| 2026-05-06 01:19 | 47.97007 | -122.08919 | 24228 ft | 383 kts | 0° |
| 2026-05-06 01:19 | 47.99656 | -122.08840 | 24719 ft | 385 kts | 0° |
| 2026-05-06 01:20 | 48.02354 | -122.08759 | 25201 ft | 389 kts | 360° |
| 2026-05-06 01:20 | 48.05064 | -122.08679 | 25681 ft | 391 kts | 360° |
| 2026-05-06 01:20 | 48.07798 | -122.08597 | 26136 ft | 395 kts | 360° |
| 2026-05-06 01:20 | 48.10557 | -122.08496 | 26608 ft | 398 kts | 2° |
| 2026-05-06 01:21 | 48.13276 | -122.07661 | 27025 ft | 405 kts | 18° |
| 2026-05-06 01:21 | 48.15756 | -122.05595 | 27469 ft | 414 kts | 35° |
| 2026-05-06 01:21 | 48.17750 | -122.02511 | 27931 ft | 424 kts | 50° |
| 2026-05-06 01:21 | 48.19158 | -121.98579 | 28384 ft | 434 kts | 64° |
| 2026-05-06 01:22 | 48.20291 | -121.94370 | 28834 ft | 437 kts | 63° |
| 2026-05-06 01:22 | 48.21433 | -121.90153 | 29232 ft | 441 kts | 63° |
| 2026-05-06 01:22 | 48.22575 | -121.85855 | 29634 ft | 444 kts | 64° |
| 2026-05-06 01:22 | 48.23711 | -121.81533 | 30007 ft | 447 kts | 64° |
| 2026-05-06 01:23 | 48.24848 | -121.77183 | 30394 ft | 450 kts | 64° |
| 2026-05-06 01:23 | 48.25995 | -121.72782 | 30748 ft | 452 kts | 64° |
| 2026-05-06 01:23 | 48.27124 | -121.68443 | 31099 ft | 455 kts | 64° |
| 2026-05-06 01:23 | 48.28274 | -121.64012 | 31450 ft | 457 kts | 64° |
| 2026-05-06 01:24 | 48.29426 | -121.59564 | 31786 ft | 459 kts | 64° |
| 2026-05-06 01:24 | 48.30584 | -121.55093 | 32114 ft | 461 kts | 64° |
| 2026-05-06 01:24 | 48.31724 | -121.50673 | 32546 ft | 460 kts | 64° |
| 2026-05-06 01:24 | 48.32893 | -121.46133 | 33039 ft | 459 kts | 63° |
| 2026-05-06 01:25 | 48.34043 | -121.41660 | 33514 ft | 458 kts | 63° |
| 2026-05-06 01:25 | 48.35180 | -121.37227 | 33959 ft | 457 kts | 63° |
| 2026-05-06 01:25 | 48.36325 | -121.32760 | 34367 ft | 456 kts | 63° |
| 2026-05-06 01:25 | 48.37465 | -121.28302 | 34733 ft | 457 kts | 63° |
| 2026-05-06 01:26 | 48.38585 | -121.23906 | 35137 ft | 454 kts | 64° |
| 2026-05-06 01:26 | 48.39702 | -121.19520 | 35447 ft | 454 kts | 63° |
| 2026-05-06 01:26 | 48.40831 | -121.15079 | 35840 ft | 452 kts | 63° |
| 2026-05-06 01:26 | 48.41949 | -121.10672 | 36176 ft | 451 kts | 63° |
| 2026-05-06 01:27 | 48.43064 | -121.06266 | 36499 ft | 450 kts | 63° |
| 2026-05-06 01:27 | 48.44175 | -121.01868 | 36831 ft | 450 kts | 63° |
| 2026-05-06 01:27 | 48.45287 | -120.97458 | 37140 ft | 449 kts | 63° |
| 2026-05-06 01:27 | 48.46375 | -120.93134 | 37400 ft | 448 kts | 63° |
| 2026-05-06 01:28 | 48.47476 | -120.88751 | 37672 ft | 448 kts | 63° |
| 2026-05-06 01:28 | 48.48573 | -120.84372 | 37955 ft | 447 kts | 63° |
| 2026-05-06 01:28 | 48.49669 | -120.80000 | 38282 ft | 447 kts | 63° |
| 2026-05-06 01:28 | 48.50763 | -120.75613 | 38731 ft | 445 kts | 63° |
| 2026-05-06 01:29 | 48.51851 | -120.71250 | 38877 ft | 445 kts | 63° |
| 2026-05-06 01:29 | 48.52937 | -120.66876 | 38902 ft | 443 kts | 63° |
| 2026-05-06 01:29 | 48.55096 | -120.58173 | 38915 ft | 444 kts | 63° |
| 2026-05-06 01:30 | 48.57225 | -120.49556 | 38900 ft | 441 kts | 63° |
| 2026-05-06 01:30 | 48.59362 | -120.40874 | 38920 ft | 442 kts | 63° |
| 2026-05-06 01:31 | 48.61491 | -120.32187 | 38902 ft | 440 kts | 63° |
| 2026-05-06 01:31 | 48.63613 | -120.23499 | 38902 ft | 440 kts | 63° |
| 2026-05-06 01:32 | 48.65708 | -120.14883 | 38888 ft | 440 kts | 63° |
| 2026-05-06 01:32 | 48.67813 | -120.06195 | 38907 ft | 441 kts | 63° |
| 2026-05-06 01:33 | 48.69912 | -119.97499 | 38908 ft | 438 kts | 63° |
| 2026-05-06 01:33 | 48.71995 | -119.88830 | 38904 ft | 437 kts | 63° |
| 2026-05-06 01:34 | 48.74068 | -119.80173 | 38885 ft | 438 kts | 63° |
| 2026-05-06 01:34 | 48.76118 | -119.71577 | 38853 ft | 438 kts | 63° |
| 2026-05-06 01:35 | 48.78180 | -119.62895 | 38900 ft | 438 kts | 63° |
| 2026-05-06 01:35 | 48.80233 | -119.54217 | 38840 ft | 436 kts | 63° |
| 2026-05-06 01:36 | 48.82258 | -119.45623 | 38843 ft | 436 kts | 63° |
| 2026-05-06 01:36 | 48.84292 | -119.36958 | 38833 ft | 436 kts | 63° |
| 2026-05-06 01:37 | 48.86313 | -119.28313 | 38852 ft | 436 kts | 63° |
| 2026-05-06 01:37 | 48.88336 | -119.19625 | 38870 ft | 436 kts | 63° |
| 2026-05-06 01:38 | 48.90347 | -119.10953 | 38859 ft | 435 kts | 63° |
| 2026-05-06 01:38 | 48.92332 | -119.02356 | 38867 ft | 435 kts | 63° |
| 2026-05-06 01:39 | 48.94331 | -118.93667 | 38856 ft | 436 kts | 63° |
| 2026-05-06 01:39 | 48.96263 | -118.85236 | 38879 ft | 436 kts | 63° |
| 2026-05-06 01:40 | 48.98235 | -118.76537 | 38869 ft | 436 kts | 65° |
| 2026-05-06 01:40 | 48.98749 | -118.71919 | 38851 ft | 453 kts | 82° |
| 2026-05-06 01:40 | 48.98693 | -118.67130 | 38906 ft | 454 kts | 79° |
| 2026-05-06 01:41 | 48.99198 | -118.62498 | 38785 ft | 433 kts | 62° |
| 2026-05-06 01:41 | 49.00496 | -118.58502 | 38855 ft | 415 kts | 49° |
| 2026-05-06 01:41 | 49.03566 | -118.51031 | 38879 ft | 422 kts | 50° |
| 2026-05-06 01:42 | 49.06445 | -118.43208 | 38889 ft | 434 kts | 64° |
| 2026-05-06 01:42 | 49.07368 | -118.33976 | 38888 ft | 455 kts | 82° |
| 2026-05-06 01:43 | 49.07271 | -118.24322 | 38825 ft | 447 kts | 73° |
| 2026-05-06 01:43 | 49.07954 | -118.19869 | 38849 ft | 428 kts | 60° |
| 2026-05-06 01:43 | 49.09246 | -118.15884 | 38873 ft | 415 kts | 48° |
| 2026-05-06 01:44 | 49.12657 | -118.08854 | 38894 ft | 414 kts | 49° |
| 2026-05-06 01:44 | 49.13958 | -118.04865 | 38899 ft | 426 kts | 59° |
| 2026-05-06 01:44 | 49.15052 | -118.00643 | 38932 ft | 430 kts | 60° |
| 2026-05-06 01:45 | 49.17054 | -117.92124 | 38899 ft | 431 kts | 62° |
| 2026-05-06 01:45 | 49.18996 | -117.83380 | 38900 ft | 432 kts | 62° |
| 2026-05-06 01:46 | 49.20881 | -117.74722 | 38905 ft | 433 kts | 63° |
| 2026-05-06 01:46 | 49.22775 | -117.65969 | 38899 ft | 432 kts | 63° |
| 2026-05-06 01:47 | 49.24653 | -117.57261 | 38879 ft | 430 kts | 63° |
| 2026-05-06 01:47 | 49.26515 | -117.48582 | 38895 ft | 429 kts | 63° |
| 2026-05-06 01:48 | 49.28367 | -117.39917 | 38845 ft | 426 kts | 63° |
| 2026-05-06 01:48 | 49.30196 | -117.31329 | 38914 ft | 430 kts | 63° |
| 2026-05-06 01:49 | 49.32041 | -117.22615 | 38893 ft | 430 kts | 63° |
| 2026-05-06 01:49 | 49.34088 | -117.12910 | 38946 ft | 430 kts | 63° |
| 2026-05-06 01:50 | 49.35935 | -117.04116 | 38936 ft | 434 kts | 63° |
| 2026-05-06 01:50 | 49.37764 | -116.95364 | 38932 ft | 429 kts | 63° |
| 2026-05-06 01:51 | 49.39563 | -116.86726 | 38953 ft | 429 kts | 63° |
| 2026-05-06 01:51 | 49.41379 | -116.77961 | 38935 ft | 429 kts | 63° |
| 2026-05-06 01:52 | 49.42870 | -116.70736 | 38971 ft | 427 kts | 63° |
| 2026-05-06 01:52 | 49.44665 | -116.62016 | 38958 ft | 428 kts | 63° |
| 2026-05-06 01:53 | 49.46732 | -116.51940 | 38894 ft | 426 kts | 63° |
| 2026-05-06 01:53 | 49.47618 | -116.47597 | 39021 ft | 425 kts | 63° |
| 2026-05-06 01:53 | 49.48504 | -116.43246 | 39005 ft | 427 kts | 63° |
| 2026-05-06 01:54 | 49.49980 | -116.35990 | 39030 ft | 427 kts | 63° |
| 2026-05-06 01:54 | 49.51739 | -116.27301 | 38949 ft | 424 kts | 63° |
| 2026-05-06 01:55 | 49.53489 | -116.18620 | 39035 ft | 428 kts | 63° |
| 2026-05-06 01:55 | 49.55258 | -116.09907 | 39002 ft | 423 kts | 59° |
| 2026-05-06 01:56 | 49.56529 | -116.05928 | 39026 ft | 410 kts | 51° |
| 2026-05-06 01:56 | 49.57897 | -116.02048 | 39000 ft | 413 kts | 52° |
| 2026-05-06 01:56 | 49.60628 | -115.94349 | 39027 ft | 410 kts | 52° |
| 2026-05-06 01:57 | 49.63369 | -115.86670 | 39011 ft | 409 kts | 52° |
| 2026-05-06 01:57 | 49.66101 | -115.78998 | 39010 ft | 409 kts | 52° |
| 2026-05-06 01:58 | 49.68837 | -115.71297 | 39009 ft | 409 kts | 52° |
| 2026-05-06 01:58 | 49.71567 | -115.63587 | 39014 ft | 409 kts | 52° |
| 2026-05-06 01:59 | 49.74287 | -115.55879 | 39052 ft | 405 kts | 52° |
| 2026-05-06 01:59 | 49.76948 | -115.48319 | 39017 ft | 404 kts | 52° |
| 2026-05-06 02:00 | 49.79642 | -115.40648 | 39107 ft | 407 kts | 52° |
| 2026-05-06 02:00 | 49.82322 | -115.32992 | 39113 ft | 406 kts | 52° |
| 2026-05-06 02:01 | 49.85009 | -115.25286 | 39189 ft | 406 kts | 52° |
| 2026-05-06 02:01 | 49.87688 | -115.17588 | 39125 ft | 404 kts | 52° |
| 2026-05-06 02:02 | 49.90351 | -115.09906 | 39166 ft | 405 kts | 52° |
| 2026-05-06 02:02 | 49.92999 | -115.02244 | 39102 ft | 405 kts | 52° |
| 2026-05-06 02:03 | 49.95666 | -114.94512 | 39203 ft | 407 kts | 52° |
| 2026-05-06 02:03 | 49.98322 | -114.86782 | 39246 ft | 405 kts | 52° |
| 2026-05-06 02:04 | 50.00936 | -114.79152 | 39215 ft | 401 kts | 52° |
| 2026-05-06 02:04 | 50.03553 | -114.71490 | 39225 ft | 402 kts | 52° |
| 2026-05-06 02:05 | 50.06181 | -114.63766 | 39192 ft | 403 kts | 52° |
| 2026-05-06 02:05 | 50.08793 | -114.56079 | 39228 ft | 402 kts | 52° |
| 2026-05-06 02:06 | 50.11386 | -114.48422 | 39304 ft | 402 kts | 52° |
| 2026-05-06 02:06 | 50.13974 | -114.40751 | 39229 ft | 399 kts | 52° |
| 2026-05-06 02:07 | 50.16556 | -114.33078 | 39246 ft | 401 kts | 52° |
| 2026-05-06 02:07 | 50.19145 | -114.25359 | 39232 ft | 402 kts | 52° |
| 2026-05-06 02:08 | 50.21720 | -114.17658 | 39235 ft | 403 kts | 52° |
| 2026-05-06 02:08 | 50.24302 | -114.09916 | 39283 ft | 403 kts | 52° |
| 2026-05-06 02:09 | 50.26877 | -114.02166 | 39243 ft | 401 kts | 52° |
| 2026-05-06 02:09 | 50.29442 | -113.94426 | 39237 ft | 402 kts | 52° |
| 2026-05-06 02:10 | 50.31991 | -113.86709 | 39226 ft | 401 kts | 52° |
| 2026-05-06 02:10 | 50.34552 | -113.78930 | 39229 ft | 402 kts | 52° |
| 2026-05-06 02:11 | 50.37102 | -113.71162 | 39263 ft | 402 kts | 53° |
| 2026-05-06 02:11 | 50.39653 | -113.63367 | 39217 ft | 402 kts | 53° |
| 2026-05-06 02:12 | 50.42197 | -113.55568 | 39221 ft | 402 kts | 53° |
| 2026-05-06 02:12 | 50.44720 | -113.47810 | 39219 ft | 402 kts | 53° |
| 2026-05-06 02:13 | 50.47250 | -113.40007 | 39215 ft | 402 kts | 53° |
| 2026-05-06 02:13 | 50.49782 | -113.32173 | 39218 ft | 402 kts | 53° |
| 2026-05-06 02:14 | 50.52307 | -113.24336 | 39215 ft | 402 kts | 53° |
| 2026-05-06 02:14 | 50.54812 | -113.16537 | 39220 ft | 403 kts | 53° |
| 2026-05-06 02:15 | 50.57329 | -113.08673 | 39214 ft | 402 kts | 53° |
| 2026-05-06 02:15 | 50.59838 | -113.00814 | 39217 ft | 403 kts | 53° |
| 2026-05-06 02:16 | 50.62345 | -112.92931 | 39261 ft | 403 kts | 53° |
| 2026-05-06 02:16 | 50.64839 | -112.85066 | 39217 ft | 404 kts | 53° |
| 2026-05-06 02:17 | 50.67347 | -112.77132 | 39213 ft | 405 kts | 53° |
| 2026-05-06 02:17 | 50.69847 | -112.69198 | 39210 ft | 405 kts | 53° |
| 2026-05-06 02:18 | 50.72345 | -112.61243 | 39211 ft | 405 kts | 53° |
| 2026-05-06 02:18 | 50.74823 | -112.53330 | 39260 ft | 405 kts | 54° |
| 2026-05-06 02:19 | 50.77325 | -112.45310 | 39219 ft | 408 kts | 54° |
| 2026-05-06 02:19 | 50.79833 | -112.37247 | 39220 ft | 409 kts | 54° |
| 2026-05-06 02:20 | 50.83559 | -112.25216 | 39216 ft | 408 kts | 54° |
| 2026-05-06 02:21 | 50.86051 | -112.17137 | 39219 ft | 408 kts | 54° |
| 2026-05-06 02:21 | 50.88541 | -112.09041 | 39229 ft | 412 kts | 54° |
| 2026-05-06 02:22 | 50.91044 | -112.00870 | 39217 ft | 411 kts | 54° |
| 2026-05-06 02:22 | 50.93524 | -111.92753 | 39228 ft | 410 kts | 54° |
| 2026-05-06 02:23 | 50.95984 | -111.84669 | 39229 ft | 410 kts | 54° |
| 2026-05-06 02:23 | 50.98460 | -111.76508 | 39238 ft | 410 kts | 54° |
| 2026-05-06 02:24 | 51.00937 | -111.68316 | 39243 ft | 414 kts | 55° |
| 2026-05-06 02:24 | 51.03415 | -111.60093 | 39241 ft | 415 kts | 55° |
| 2026-05-06 02:25 | 51.05881 | -111.51882 | 39241 ft | 415 kts | 55° |
| 2026-05-06 02:25 | 51.08357 | -111.43608 | 39238 ft | 415 kts | 55° |
| 2026-05-06 02:26 | 51.10834 | -111.35304 | 39238 ft | 415 kts | 55° |
| 2026-05-06 02:26 | 51.13300 | -111.27008 | 39242 ft | 417 kts | 56° |
| 2026-05-06 02:27 | 51.15779 | -111.18638 | 39232 ft | 418 kts | 56° |
| 2026-05-06 02:27 | 51.18233 | -111.10322 | 39230 ft | 418 kts | 56° |
| 2026-05-06 02:28 | 51.20698 | -111.01943 | 39243 ft | 418 kts | 56° |
| 2026-05-06 02:28 | 51.23161 | -110.93540 | 39240 ft | 418 kts | 56° |
| 2026-05-06 02:29 | 51.25615 | -110.85139 | 39246 ft | 420 kts | 56° |
| 2026-05-06 02:29 | 51.28058 | -110.76747 | 39237 ft | 420 kts | 57° |
| 2026-05-06 02:30 | 51.30514 | -110.68276 | 39227 ft | 420 kts | 57° |
| 2026-05-06 02:30 | 51.32962 | -110.59809 | 39232 ft | 420 kts | 57° |
| 2026-05-06 02:31 | 51.35405 | -110.51336 | 39231 ft | 420 kts | 57° |
| 2026-05-06 02:31 | 51.37836 | -110.42877 | 39235 ft | 421 kts | 57° |
| 2026-05-06 02:32 | 51.40280 | -110.34344 | 39230 ft | 422 kts | 57° |
| 2026-05-06 02:32 | 51.42715 | -110.25811 | 39230 ft | 422 kts | 57° |
| 2026-05-06 02:33 | 51.45142 | -110.17278 | 39223 ft | 422 kts | 57° |
| 2026-05-06 02:33 | 51.45944 | -110.14450 | 39227 ft | 422 kts | 57° |
| 2026-05-06 02:34 | 51.50010 | -110.00211 | 39228 ft | 420 kts | 53° |
| 2026-05-06 02:34 | 51.53205 | -109.92479 | 39218 ft | 416 kts | 49° |
| 2026-05-06 02:35 | 51.56434 | -109.84790 | 39221 ft | 415 kts | 49° |
| 2026-05-06 02:35 | 51.59632 | -109.77192 | 39227 ft | 413 kts | 49° |
| 2026-05-06 02:36 | 51.62849 | -109.69531 | 39225 ft | 414 kts | 49° |
| 2026-05-06 02:36 | 51.66076 | -109.61821 | 39220 ft | 417 kts | 49° |
| 2026-05-06 02:37 | 51.69318 | -109.54071 | 37971 ft | 418 kts | 56° |
| 2026-05-06 02:37 | 51.70919 | -109.50200 | 39313 ft | 417 kts | 49° |
| 2026-05-06 02:37 | 51.72544 | -109.46300 | 38042 ft | 420 kts | 53° |
| 2026-05-06 02:37 | 51.74154 | -109.42424 | 39276 ft | 421 kts | 50° |
| 2026-05-06 02:38 | 51.75782 | -109.38493 | 39257 ft | 421 kts | 49° |
| 2026-05-06 02:38 | 51.79009 | -109.30690 | 39213 ft | 417 kts | 49° |
| 2026-05-06 02:39 | 51.82231 | -109.22875 | 39219 ft | 418 kts | 49° |
| 2026-05-06 02:39 | 51.85436 | -109.15079 | 39229 ft | 418 kts | 50° |
| 2026-05-06 02:40 | 51.88631 | -109.07283 | 39230 ft | 418 kts | 50° |
| 2026-05-06 02:40 | 51.91838 | -108.99432 | 39235 ft | 418 kts | 50° |
| 2026-05-06 02:41 | 51.95039 | -108.91574 | 39235 ft | 418 kts | 50° |
| 2026-05-06 02:41 | 51.98235 | -108.83704 | 39245 ft | 420 kts | 50° |
| 2026-05-06 02:42 | 52.01429 | -108.75815 | 39233 ft | 421 kts | 50° |
| 2026-05-06 02:42 | 52.04641 | -108.67857 | 39229 ft | 421 kts | 50° |
| 2026-05-06 02:43 | 52.07848 | -108.59886 | 39245 ft | 421 kts | 50° |
| 2026-05-06 02:43 | 52.11049 | -108.51903 | 39232 ft | 421 kts | 50° |
| 2026-05-06 02:44 | 52.14243 | -108.43917 | 39246 ft | 423 kts | 51° |
| 2026-05-06 02:44 | 52.17432 | -108.35915 | 39234 ft | 424 kts | 51° |
| 2026-05-06 02:45 | 52.20635 | -108.27853 | 39236 ft | 424 kts | 51° |
| 2026-05-06 02:45 | 52.23836 | -108.19771 | 39234 ft | 424 kts | 51° |
| 2026-05-06 02:46 | 52.27022 | -108.11701 | 39235 ft | 424 kts | 51° |
| 2026-05-06 02:46 | 52.30216 | -108.03586 | 39245 ft | 426 kts | 51° |
| 2026-05-06 02:47 | 52.33402 | -107.95467 | 39236 ft | 428 kts | 51° |
| 2026-05-06 02:47 | 52.36606 | -107.87274 | 39234 ft | 427 kts | 51° |
| 2026-05-06 02:48 | 52.39799 | -107.79084 | 39234 ft | 427 kts | 51° |
| 2026-05-06 02:48 | 52.42989 | -107.70874 | 39231 ft | 427 kts | 51° |
| 2026-05-06 02:49 | 52.46172 | -107.62653 | 39243 ft | 429 kts | 52° |
| 2026-05-06 02:49 | 52.49340 | -107.54449 | 39236 ft | 430 kts | 52° |
| 2026-05-06 02:50 | 52.52527 | -107.46167 | 39234 ft | 430 kts | 52° |
| 2026-05-06 02:50 | 52.55716 | -107.37851 | 39235 ft | 430 kts | 52° |
| 2026-05-06 02:51 | 52.58896 | -107.29534 | 39234 ft | 430 kts | 52° |
| 2026-05-06 02:51 | 52.62053 | -107.21248 | 39248 ft | 431 kts | 52° |
| 2026-05-06 02:52 | 52.65238 | -107.12862 | 39237 ft | 433 kts | 52° |
| 2026-05-06 02:52 | 52.68421 | -107.04453 | 39227 ft | 433 kts | 53° |
| 2026-05-06 02:53 | 52.71600 | -106.96027 | 39227 ft | 433 kts | 53° |
| 2026-05-06 02:53 | 52.74749 | -106.87650 | 39226 ft | 433 kts | 53° |
| 2026-05-06 02:54 | 52.77922 | -106.79184 | 39240 ft | 434 kts | 53° |
| 2026-05-06 02:54 | 52.81099 | -106.70680 | 39225 ft | 436 kts | 53° |
| 2026-05-06 02:55 | 52.84279 | -106.62134 | 39221 ft | 436 kts | 53° |
| 2026-05-06 02:55 | 52.87448 | -106.53593 | 39224 ft | 436 kts | 53° |
| 2026-05-06 02:56 | 52.90591 | -106.45091 | 39225 ft | 436 kts | 53° |
| 2026-05-06 02:56 | 52.93747 | -106.36527 | 39230 ft | 437 kts | 54° |
| 2026-05-06 02:57 | 52.96916 | -106.27896 | 39222 ft | 439 kts | 54° |
| 2026-05-06 02:57 | 53.00076 | -106.19261 | 39220 ft | 439 kts | 54° |
| 2026-05-06 02:58 | 53.03214 | -106.10658 | 39222 ft | 439 kts | 54° |
| 2026-05-06 02:58 | 53.06359 | -106.02005 | 39216 ft | 439 kts | 54° |
| 2026-05-06 02:59 | 53.09509 | -105.93307 | 39191 ft | 440 kts | 54° |
| 2026-05-06 02:59 | 53.12672 | -105.84544 | 39169 ft | 442 kts | 54° |
| 2026-05-06 03:00 | 53.15805 | -105.75832 | 39150 ft | 442 kts | 54° |
| 2026-05-06 03:00 | 53.18946 | -105.67069 | 39143 ft | 442 kts | 54° |
| 2026-05-06 03:01 | 53.22096 | -105.58248 | 39149 ft | 442 kts | 54° |
| 2026-05-06 03:01 | 53.25235 | -105.49428 | 39159 ft | 442 kts | 55° |
| 2026-05-06 03:02 | 53.28346 | -105.40656 | 39169 ft | 443 kts | 55° |
| 2026-05-06 03:02 | 53.31476 | -105.31798 | 39180 ft | 443 kts | 55° |
| 2026-05-06 03:03 | 53.34594 | -105.22942 | 39195 ft | 443 kts | 55° |
| 2026-05-06 03:03 | 53.37714 | -105.14049 | 39205 ft | 443 kts | 55° |
| 2026-05-06 03:04 | 53.40815 | -105.05181 | 39208 ft | 443 kts | 55° |
| 2026-05-06 03:04 | 53.43914 | -104.96283 | 39205 ft | 443 kts | 55° |
| 2026-05-06 03:05 | 53.47016 | -104.87347 | 39206 ft | 443 kts | 55° |
| 2026-05-06 03:05 | 53.50117 | -104.78381 | 39203 ft | 444 kts | 55° |
| 2026-05-06 03:06 | 53.53205 | -104.69420 | 39203 ft | 444 kts | 56° |
| 2026-05-06 03:06 | 53.56283 | -104.60454 | 39220 ft | 444 kts | 56° |
| 2026-05-06 03:07 | 53.59347 | -104.51498 | 39209 ft | 445 kts | 56° |
| 2026-05-06 03:07 | 53.62427 | -104.42464 | 39196 ft | 445 kts | 56° |
| 2026-05-06 03:08 | 53.65502 | -104.33409 | 39194 ft | 445 kts | 56° |
| 2026-05-06 03:08 | 53.68563 | -104.24361 | 39189 ft | 445 kts | 56° |
| 2026-05-06 03:09 | 53.71606 | -104.15335 | 39211 ft | 446 kts | 56° |
| 2026-05-06 03:09 | 53.74665 | -104.06228 | 39186 ft | 446 kts | 56° |
| 2026-05-06 03:10 | 53.77721 | -103.97094 | 39183 ft | 446 kts | 56° |
| 2026-05-06 03:10 | 53.80765 | -103.87965 | 39181 ft | 447 kts | 57° |
| 2026-05-06 03:11 | 53.83810 | -103.78796 | 39181 ft | 447 kts | 57° |
| 2026-05-06 03:11 | 53.86826 | -103.69682 | 39194 ft | 447 kts | 57° |
| 2026-05-06 03:12 | 53.89865 | -103.60464 | 39184 ft | 448 kts | 57° |
| 2026-05-06 03:12 | 53.92886 | -103.51265 | 39178 ft | 448 kts | 57° |
| 2026-05-06 03:13 | 53.95912 | -103.42015 | 39179 ft | 448 kts | 57° |
| 2026-05-06 03:13 | 53.98907 | -103.32826 | 39173 ft | 448 kts | 57° |
| 2026-05-06 03:14 | 54.01922 | -103.23543 | 39190 ft | 449 kts | 58° |
| 2026-05-06 03:14 | 54.04934 | -103.14231 | 39175 ft | 449 kts | 58° |
| 2026-05-06 03:15 | 54.07930 | -103.04931 | 39178 ft | 449 kts | 58° |
| 2026-05-06 03:15 | 54.10909 | -102.95650 | 39176 ft | 449 kts | 58° |
| 2026-05-06 03:16 | 54.13899 | -102.86301 | 39165 ft | 449 kts | 58° |
| 2026-05-06 03:16 | 54.16886 | -102.76922 | 39179 ft | 450 kts | 58° |
| 2026-05-06 03:17 | 54.19861 | -102.67545 | 39175 ft | 451 kts | 58° |
| 2026-05-06 03:17 | 54.22833 | -102.58142 | 39172 ft | 451 kts | 58° |
| 2026-05-06 03:18 | 54.25786 | -102.48763 | 39171 ft | 451 kts | 58° |
| 2026-05-06 03:18 | 54.28752 | -102.39305 | 39168 ft | 451 kts | 59° |
| 2026-05-06 03:19 | 54.31700 | -102.29866 | 39190 ft | 451 kts | 59° |
| 2026-05-06 03:19 | 54.34654 | -102.20372 | 39174 ft | 452 kts | 59° |
| 2026-05-06 03:20 | 54.39060 | -102.06140 | 39171 ft | 452 kts | 59° |
| 2026-05-06 03:20 | 54.41993 | -101.96622 | 39165 ft | 452 kts | 59° |
| 2026-05-06 03:21 | 54.44921 | -101.87077 | 39165 ft | 452 kts | 59° |
| 2026-05-06 03:21 | 54.47844 | -101.77511 | 39170 ft | 452 kts | 59° |
| 2026-05-06 03:22 | 54.50764 | -101.67918 | 39168 ft | 452 kts | 60° |
| 2026-05-06 03:22 | 54.53646 | -101.58413 | 39165 ft | 453 kts | 60° |
| 2026-05-06 03:23 | 54.56552 | -101.48789 | 39165 ft | 452 kts | 60° |
| 2026-05-06 03:23 | 54.59448 | -101.39158 | 39159 ft | 452 kts | 60° |
| 2026-05-06 03:24 | 54.62337 | -101.29512 | 39164 ft | 453 kts | 60° |
| 2026-05-06 03:24 | 54.65212 | -101.19875 | 39163 ft | 453 kts | 60° |
| 2026-05-06 03:25 | 54.68065 | -101.10272 | 39162 ft | 453 kts | 60° |
| 2026-05-06 03:25 | 54.70935 | -101.00575 | 39161 ft | 453 kts | 60° |
| 2026-05-06 03:26 | 54.73798 | -100.90872 | 39161 ft | 453 kts | 60° |
| 2026-05-06 03:26 | 54.76626 | -100.81248 | 39166 ft | 453 kts | 60° |
| 2026-05-06 03:27 | 54.79478 | -100.71507 | 39155 ft | 453 kts | 60° |
| 2026-05-06 03:27 | 54.82319 | -100.61763 | 39160 ft | 453 kts | 61° |
| 2026-05-06 03:28 | 54.85154 | -100.52002 | 39158 ft | 453 kts | 61° |
| 2026-05-06 03:28 | 54.87959 | -100.42306 | 39160 ft | 453 kts | 61° |
| 2026-05-06 03:29 | 54.90781 | -100.32514 | 39158 ft | 453 kts | 61° |
| 2026-05-06 03:29 | 54.93595 | -100.22708 | 39160 ft | 453 kts | 61° |
| 2026-05-06 03:30 | 54.96398 | -100.12901 | 39164 ft | 453 kts | 61° |
| 2026-05-06 03:30 | 54.99171 | -100.03162 | 39163 ft | 453 kts | 61° |
| 2026-05-06 03:31 | 55.02339 | -99.93736 | 39177 ft | 452 kts | 56° |
| 2026-05-06 03:31 | 55.05690 | -99.84471 | 39167 ft | 451 kts | 55° |
| 2026-05-06 03:32 | 55.09059 | -99.75214 | 39164 ft | 451 kts | 55° |
| 2026-05-06 03:32 | 55.12391 | -99.66035 | 39162 ft | 452 kts | 55° |
| 2026-05-06 03:33 | 55.15746 | -99.56754 | 39160 ft | 452 kts | 56° |
| 2026-05-06 03:33 | 55.19092 | -99.47466 | 39159 ft | 452 kts | 56° |
| 2026-05-06 03:34 | 55.22440 | -99.38138 | 39178 ft | 452 kts | 56° |
| 2026-05-06 03:34 | 55.25771 | -99.28819 | 39162 ft | 452 kts | 56° |
| 2026-05-06 03:35 | 55.29085 | -99.19514 | 39159 ft | 453 kts | 56° |
| 2026-05-06 03:35 | 55.32415 | -99.10131 | 39159 ft | 453 kts | 56° |
| 2026-05-06 03:36 | 55.35732 | -99.00745 | 39162 ft | 453 kts | 56° |
| 2026-05-06 03:36 | 55.39037 | -98.91357 | 39161 ft | 453 kts | 56° |
| 2026-05-06 03:37 | 55.42351 | -98.81908 | 39159 ft | 454 kts | 56° |
| 2026-05-06 03:37 | 55.45635 | -98.72507 | 39158 ft | 454 kts | 57° |
| 2026-05-06 03:38 | 55.48939 | -98.63014 | 39153 ft | 454 kts | 57° |
| 2026-05-06 03:38 | 55.52218 | -98.53556 | 39155 ft | 453 kts | 57° |
| 2026-05-06 03:39 | 55.55505 | -98.44037 | 39151 ft | 453 kts | 57° |
| 2026-05-06 03:39 | 55.58755 | -98.34586 | 39143 ft | 454 kts | 57° |
| 2026-05-06 03:40 | 55.62033 | -98.25019 | 39132 ft | 455 kts | 57° |
| 2026-05-06 03:40 | 55.65298 | -98.15453 | 39122 ft | 455 kts | 57° |
| 2026-05-06 03:41 | 55.68561 | -98.05854 | 39112 ft | 455 kts | 57° |
| 2026-05-06 03:41 | 55.71795 | -97.96301 | 39099 ft | 455 kts | 57° |
| 2026-05-06 03:42 | 55.75041 | -97.86675 | 39123 ft | 455 kts | 57° |
| 2026-05-06 03:42 | 55.78275 | -97.77049 | 39102 ft | 455 kts | 58° |
| 2026-05-06 03:43 | 55.81517 | -97.67358 | 39101 ft | 456 kts | 58° |
| 2026-05-06 03:43 | 55.84746 | -97.57668 | 39112 ft | 456 kts | 58° |
| 2026-05-06 03:44 | 55.87949 | -97.48016 | 39137 ft | 456 kts | 58° |
| 2026-05-06 03:44 | 55.91155 | -97.38318 | 39132 ft | 456 kts | 58° |
| 2026-05-06 03:45 | 55.94366 | -97.28564 | 39136 ft | 456 kts | 58° |
| 2026-05-06 03:45 | 55.97569 | -97.18796 | 39129 ft | 456 kts | 58° |
| 2026-05-06 03:46 | 56.00749 | -97.09057 | 39127 ft | 456 kts | 58° |
| 2026-05-06 03:46 | 56.03929 | -96.99280 | 39121 ft | 456 kts | 58° |
| 2026-05-06 03:47 | 56.07113 | -96.89449 | 39121 ft | 456 kts | 58° |
| 2026-05-06 03:47 | 56.10285 | -96.79617 | 39125 ft | 457 kts | 58° |
| 2026-05-06 03:48 | 56.13458 | -96.69740 | 39119 ft | 457 kts | 59° |
| 2026-05-06 03:48 | 56.16591 | -96.59945 | 39112 ft | 457 kts | 59° |
| 2026-05-06 03:49 | 56.19745 | -96.50045 | 39115 ft | 457 kts | 59° |
| 2026-05-06 03:49 | 56.22888 | -96.40142 | 39108 ft | 457 kts | 59° |
| 2026-05-06 03:50 | 56.26025 | -96.30213 | 39125 ft | 457 kts | 59° |
| 2026-05-06 03:50 | 56.29131 | -96.20342 | 39111 ft | 457 kts | 59° |
| 2026-05-06 03:51 | 56.32260 | -96.10356 | 39107 ft | 457 kts | 59° |
| 2026-05-06 03:51 | 56.35374 | -96.00377 | 39104 ft | 458 kts | 59° |
| 2026-05-06 03:52 | 56.38488 | -95.90353 | 39102 ft | 458 kts | 59° |
| 2026-05-06 03:52 | 56.41584 | -95.80348 | 39102 ft | 457 kts | 59° |
| 2026-05-06 03:53 | 56.44674 | -95.70318 | 39104 ft | 457 kts | 60° |
| 2026-05-06 03:53 | 56.47735 | -95.60341 | 39097 ft | 456 kts | 59° |
| 2026-05-06 03:54 | 56.50807 | -95.50286 | 39104 ft | 456 kts | 60° |
| 2026-05-06 03:54 | 56.53866 | -95.40231 | 39100 ft | 457 kts | 60° |
| 2026-05-06 03:55 | 56.56924 | -95.30137 | 39094 ft | 457 kts | 60° |
| 2026-05-06 03:55 | 56.59967 | -95.20043 | 39090 ft | 457 kts | 60° |
| 2026-05-06 03:56 | 56.62982 | -95.10004 | 39085 ft | 457 kts | 60° |
| 2026-05-06 03:56 | 56.66017 | -94.99855 | 39085 ft | 457 kts | 60° |
| 2026-05-06 03:57 | 56.69037 | -94.89712 | 39089 ft | 457 kts | 60° |
| 2026-05-06 03:57 | 56.72033 | -94.79603 | 39079 ft | 457 kts | 60° |
| 2026-05-06 03:58 | 56.74998 | -94.69560 | 39080 ft | 457 kts | 60° |
| 2026-05-06 03:58 | 56.78014 | -94.59299 | 39075 ft | 456 kts | 60° |
| 2026-05-06 03:59 | 56.80997 | -94.49102 | 39080 ft | 456 kts | 61° |
| 2026-05-06 03:59 | 56.83956 | -94.38946 | 39068 ft | 455 kts | 61° |
| 2026-05-06 04:00 | 56.86916 | -94.28742 | 39071 ft | 456 kts | 60° |
| 2026-05-06 04:00 | 56.89869 | -94.18516 | 39058 ft | 455 kts | 61° |
| 2026-05-06 04:01 | 56.92822 | -94.08243 | 39067 ft | 456 kts | 61° |
| 2026-05-06 04:01 | 56.95761 | -93.97973 | 39050 ft | 454 kts | 62° |
| 2026-05-06 04:02 | 56.98654 | -93.87821 | 39047 ft | 455 kts | 62° |
| 2026-05-06 04:02 | 57.01576 | -93.77523 | 39051 ft | 454 kts | 61° |
| 2026-05-06 04:03 | 57.04489 | -93.67209 | 39036 ft | 454 kts | 61° |
| 2026-05-06 04:03 | 57.07389 | -93.56895 | 39038 ft | 454 kts | 61° |
| 2026-05-06 04:04 | 57.10275 | -93.46585 | 39026 ft | 454 kts | 62° |
| 2026-05-06 04:04 | 57.13142 | -93.36297 | 39025 ft | 455 kts | 62° |
| 2026-05-06 04:05 | 57.16018 | -93.25931 | 39016 ft | 454 kts | 62° |
| 2026-05-06 04:05 | 57.18885 | -93.15547 | 39015 ft | 455 kts | 62° |
| 2026-05-06 04:06 | 57.21737 | -93.05174 | 39006 ft | 454 kts | 62° |
| 2026-05-06 04:06 | 57.24563 | -92.94848 | 39015 ft | 455 kts | 62° |
| 2026-05-06 04:07 | 57.27408 | -92.84402 | 38999 ft | 455 kts | 62° |
| 2026-05-06 04:07 | 57.30245 | -92.73940 | 38990 ft | 455 kts | 63° |
| 2026-05-06 04:08 | 57.33070 | -92.63471 | 38999 ft | 455 kts | 62° |
| 2026-05-06 04:08 | 57.35871 | -92.53049 | 38981 ft | 455 kts | 63° |
| 2026-05-06 04:09 | 57.38682 | -92.42538 | 38977 ft | 455 kts | 63° |
| 2026-05-06 04:09 | 57.41480 | -92.32027 | 38974 ft | 453 kts | 63° |
| 2026-05-06 04:10 | 57.44252 | -92.21567 | 38966 ft | 453 kts | 63° |
| 2026-05-06 04:10 | 57.47024 | -92.11053 | 38950 ft | 453 kts | 63° |
| 2026-05-06 04:11 | 57.49774 | -92.00579 | 38959 ft | 453 kts | 63° |
| 2026-05-06 04:11 | 57.52531 | -91.90027 | 38953 ft | 453 kts | 63° |
| 2026-05-06 04:12 | 57.55269 | -91.79501 | 38958 ft | 453 kts | 64° |
| 2026-05-06 04:12 | 57.57991 | -91.68979 | 38941 ft | 449 kts | 64° |
| 2026-05-06 04:13 | 57.60681 | -91.58540 | 38928 ft | 451 kts | 64° |
| 2026-05-06 04:13 | 57.63383 | -91.48000 | 38941 ft | 450 kts | 64° |
| 2026-05-06 04:14 | 57.66072 | -91.37463 | 38926 ft | 450 kts | 64° |
| 2026-05-06 04:14 | 57.68304 | -91.28679 | 38921 ft | 450 kts | 64° |
| 2026-05-06 04:15 | 57.71407 | -91.16409 | 38913 ft | 448 kts | 64° |
| 2026-05-06 04:15 | 57.74057 | -91.05875 | 38904 ft | 448 kts | 64° |
| 2026-05-06 04:16 | 57.76253 | -90.97123 | 38905 ft | 449 kts | 65° |
| 2026-05-06 04:16 | 57.78898 | -90.86535 | 38907 ft | 449 kts | 65° |
| 2026-05-06 04:17 | 57.81538 | -90.75918 | 38900 ft | 449 kts | 65° |
| 2026-05-06 04:17 | 57.84169 | -90.65292 | 38902 ft | 449 kts | 65° |
| 2026-05-06 04:18 | 57.86782 | -90.54689 | 38903 ft | 448 kts | 65° |
| 2026-05-06 04:18 | 57.89367 | -90.44150 | 38884 ft | 447 kts | 65° |
| 2026-05-06 04:19 | 57.91962 | -90.33522 | 38891 ft | 448 kts | 65° |
| 2026-05-06 04:19 | 57.94551 | -90.22869 | 38886 ft | 447 kts | 65° |
| 2026-05-06 04:20 | 57.97126 | -90.12227 | 38875 ft | 448 kts | 65° |
| 2026-05-06 04:20 | 57.99728 | -90.01576 | 38877 ft | 448 kts | 61° |
| 2026-05-06 04:21 | 58.01508 | -89.96794 | 38853 ft | 446 kts | 50° |
| 2026-05-06 04:21 | 58.03461 | -89.92311 | 38849 ft | 449 kts | 52° |
| 2026-05-06 04:21 | 58.07357 | -89.83114 | 38882 ft | 449 kts | 52° |
| 2026-05-06 04:22 | 58.11262 | -89.73941 | 38860 ft | 449 kts | 52° |
| 2026-05-06 04:23 | 58.17106 | -89.60146 | 38866 ft | 449 kts | 52° |
| 2026-05-06 04:23 | 58.21008 | -89.50891 | 38854 ft | 450 kts | 52° |
| 2026-05-06 04:24 | 58.24901 | -89.41620 | 38865 ft | 449 kts | 52° |
| 2026-05-06 04:24 | 58.28774 | -89.32361 | 38856 ft | 450 kts | 53° |
| 2026-05-06 04:25 | 58.32661 | -89.23031 | 38849 ft | 449 kts | 52° |
| 2026-05-06 04:25 | 58.36517 | -89.13742 | 38865 ft | 450 kts | 52° |
| 2026-05-06 04:26 | 58.40384 | -89.04387 | 38850 ft | 450 kts | 53° |
| 2026-05-06 04:26 | 58.44241 | -88.95021 | 38853 ft | 449 kts | 53° |
| 2026-05-06 04:27 | 58.48092 | -88.85632 | 38829 ft | 449 kts | 53° |
| 2026-05-06 04:27 | 58.51939 | -88.76215 | 38848 ft | 450 kts | 53° |
| 2026-05-06 04:28 | 58.55764 | -88.66816 | 38837 ft | 451 kts | 53° |
| 2026-05-06 04:28 | 58.59605 | -88.57334 | 38843 ft | 451 kts | 53° |
| 2026-05-06 04:29 | 58.63449 | -88.47814 | 38831 ft | 451 kts | 54° |
| 2026-05-06 04:29 | 58.67277 | -88.38291 | 38829 ft | 451 kts | 54° |
| 2026-05-06 04:30 | 58.71106 | -88.28727 | 38834 ft | 450 kts | 54° |
| 2026-05-06 04:30 | 58.74892 | -88.19234 | 38826 ft | 451 kts | 53° |
| 2026-05-06 04:31 | 58.78703 | -88.09639 | 38832 ft | 451 kts | 54° |
| 2026-05-06 04:31 | 58.82506 | -88.00024 | 38823 ft | 450 kts | 54° |
| 2026-05-06 04:32 | 58.86293 | -87.90410 | 38818 ft | 450 kts | 54° |
| 2026-05-06 04:32 | 58.90042 | -87.80856 | 38820 ft | 450 kts | 54° |
| 2026-05-06 04:33 | 58.93816 | -87.71195 | 38794 ft | 450 kts | 54° |
| 2026-05-06 04:33 | 58.97590 | -87.61498 | 38805 ft | 450 kts | 54° |
| 2026-05-06 04:34 | 59.01338 | -87.51829 | 38794 ft | 450 kts | 54° |
| 2026-05-06 04:34 | 59.05087 | -87.42115 | 38804 ft | 450 kts | 54° |
| 2026-05-06 04:35 | 59.08809 | -87.32434 | 38796 ft | 450 kts | 54° |
| 2026-05-06 04:35 | 59.12546 | -87.22671 | 38798 ft | 450 kts | 54° |
| 2026-05-06 04:36 | 59.16273 | -87.12894 | 38787 ft | 450 kts | 55° |
| 2026-05-06 04:36 | 59.20000 | -87.03080 | 38796 ft | 450 kts | 55° |
| 2026-05-06 04:37 | 59.23691 | -86.93316 | 38778 ft | 451 kts | 55° |
| 2026-05-06 04:37 | 59.27399 | -86.83467 | 38775 ft | 450 kts | 54° |
| 2026-05-06 04:38 | 59.31097 | -86.73603 | 38783 ft | 450 kts | 55° |
| 2026-05-06 04:38 | 59.34782 | -86.63733 | 38774 ft | 449 kts | 54° |
| 2026-05-06 04:39 | 59.38467 | -86.53823 | 38775 ft | 450 kts | 55° |
| 2026-05-06 04:39 | 59.42122 | -86.43949 | 38773 ft | 450 kts | 55° |
| 2026-05-06 04:40 | 59.45792 | -86.33996 | 38767 ft | 449 kts | 55° |
| 2026-05-06 04:40 | 59.49446 | -86.24042 | 38760 ft | 449 kts | 55° |
| 2026-05-06 04:41 | 59.53094 | -86.14063 | 38765 ft | 449 kts | 56° |
| 2026-05-06 04:41 | 59.56709 | -86.04134 | 38751 ft | 449 kts | 55° |
| 2026-05-06 04:42 | 59.60336 | -85.94129 | 38759 ft | 448 kts | 56° |
| 2026-05-06 04:42 | 59.63949 | -85.84116 | 38759 ft | 449 kts | 56° |
| 2026-05-06 04:43 | 59.67558 | -85.74077 | 38752 ft | 447 kts | 56° |
| 2026-05-06 04:43 | 59.71133 | -85.64088 | 38745 ft | 448 kts | 56° |
| 2026-05-06 04:44 | 59.74725 | -85.54005 | 38741 ft | 447 kts | 56° |
| 2026-05-06 04:44 | 59.78305 | -85.43916 | 38738 ft | 449 kts | 56° |
| 2026-05-06 04:45 | 59.81884 | -85.33785 | 38733 ft | 447 kts | 56° |
| 2026-05-06 04:45 | 59.85424 | -85.23720 | 38716 ft | 447 kts | 56° |
| 2026-05-06 04:46 | 59.88967 | -85.13608 | 38717 ft | 445 kts | 56° |
| 2026-05-06 04:46 | 59.92489 | -85.03508 | 38716 ft | 446 kts | 57° |
| 2026-05-06 04:47 | 59.96018 | -84.93347 | 38713 ft | 445 kts | 56° |
| 2026-05-06 04:47 | 59.99542 | -84.83152 | 38711 ft | 447 kts | 57° |
| 2026-05-06 04:48 | 60.03044 | -84.72980 | 38712 ft | 446 kts | 56° |
| 2026-05-06 04:48 | 60.06539 | -84.62781 | 38690 ft | 446 kts | 57° |
| 2026-05-06 04:49 | 60.10038 | -84.52528 | 38698 ft | 445 kts | 57° |
| 2026-05-06 04:49 | 60.13524 | -84.42267 | 38692 ft | 446 kts | 57° |
| 2026-05-06 04:50 | 60.16984 | -84.32036 | 38691 ft | 446 kts | 57° |
| 2026-05-06 04:50 | 60.20457 | -84.21724 | 38684 ft | 447 kts | 57° |
| 2026-05-06 04:51 | 60.23935 | -84.11352 | 38694 ft | 446 kts | 57° |
| 2026-05-06 04:51 | 60.27398 | -84.00978 | 38678 ft | 446 kts | 57° |
| 2026-05-06 04:52 | 60.30823 | -83.90669 | 38678 ft | 445 kts | 58° |
| 2026-05-06 04:52 | 60.34250 | -83.80312 | 38657 ft | 445 kts | 58° |
| 2026-05-06 04:53 | 60.37688 | -83.69873 | 38670 ft | 446 kts | 58° |
| 2026-05-06 04:53 | 60.41122 | -83.59403 | 38662 ft | 447 kts | 58° |
| 2026-05-06 04:54 | 60.44519 | -83.48996 | 38656 ft | 446 kts | 58° |
| 2026-05-06 04:54 | 60.47921 | -83.38527 | 38644 ft | 445 kts | 58° |
| 2026-05-06 04:55 | 60.51320 | -83.28016 | 38650 ft | 445 kts | 58° |
| 2026-05-06 04:55 | 60.54709 | -83.17493 | 38633 ft | 445 kts | 58° |
| 2026-05-06 04:56 | 60.58079 | -83.06981 | 38632 ft | 448 kts | 59° |
| 2026-05-06 04:56 | 60.61464 | -82.96375 | 38638 ft | 447 kts | 58° |
| 2026-05-06 04:57 | 60.64845 | -82.85730 | 38638 ft | 448 kts | 59° |
| 2026-05-06 04:57 | 60.68214 | -82.75072 | 38635 ft | 446 kts | 59° |
| 2026-05-06 04:58 | 60.71574 | -82.64400 | 38633 ft | 447 kts | 59° |
| 2026-05-06 04:58 | 60.74896 | -82.53795 | 38627 ft | 447 kts | 58° |
| 2026-05-06 04:59 | 60.78245 | -82.43058 | 38623 ft | 448 kts | 59° |
| 2026-05-06 04:59 | 60.81585 | -82.32297 | 38629 ft | 447 kts | 59° |
| 2026-05-06 05:00 | 60.84912 | -82.21530 | 38610 ft | 448 kts | 59° |
| 2026-05-06 05:00 | 60.88205 | -82.10819 | 38619 ft | 447 kts | 59° |
| 2026-05-06 05:01 | 60.91509 | -82.00023 | 38597 ft | 446 kts | 59° |
| 2026-05-06 05:01 | 60.94808 | -81.89195 | 38603 ft | 447 kts | 59° |
| 2026-05-06 05:02 | 60.98080 | -81.78406 | 38602 ft | 447 kts | 59° |
| 2026-05-06 05:02 | 61.01355 | -81.67558 | 38590 ft | 448 kts | 60° |
| 2026-05-06 05:03 | 61.04629 | -81.56653 | 38586 ft | 448 kts | 60° |
| 2026-05-06 05:03 | 61.07904 | -81.45700 | 38579 ft | 448 kts | 60° |
| 2026-05-06 05:04 | 61.11170 | -81.34722 | 38576 ft | 448 kts | 60° |
| 2026-05-06 05:04 | 61.14399 | -81.23820 | 38578 ft | 448 kts | 60° |
| 2026-05-06 05:05 | 61.17643 | -81.12811 | 38585 ft | 448 kts | 60° |
| 2026-05-06 05:05 | 61.20879 | -81.01787 | 38566 ft | 448 kts | 61° |
| 2026-05-06 05:06 | 61.24119 | -80.90702 | 38573 ft | 448 kts | 61° |
| 2026-05-06 05:06 | 61.27332 | -80.79660 | 38574 ft | 448 kts | 61° |
| 2026-05-06 05:07 | 61.30532 | -80.68613 | 38560 ft | 448 kts | 61° |
| 2026-05-06 05:07 | 61.33741 | -80.57483 | 38558 ft | 449 kts | 61° |
| 2026-05-06 05:08 | 61.36943 | -80.46328 | 38564 ft | 449 kts | 61° |
| 2026-05-06 05:08 | 61.40128 | -80.35176 | 38558 ft | 448 kts | 61° |
| 2026-05-06 05:09 | 61.43314 | -80.23973 | 38554 ft | 448 kts | 61° |
| 2026-05-06 05:09 | 61.46466 | -80.12838 | 38554 ft | 449 kts | 62° |
| 2026-05-06 05:10 | 61.49623 | -80.01603 | 38545 ft | 447 kts | 63° |
| 2026-05-06 05:10 | 61.52014 | -79.89661 | 38533 ft | 446 kts | 70° |
| 2026-05-06 05:11 | 61.54335 | -79.77657 | 38536 ft | 445 kts | 70° |
| 2026-05-06 05:11 | 61.56636 | -79.65697 | 38545 ft | 444 kts | 70° |
| 2026-05-06 05:12 | 61.58936 | -79.53669 | 38544 ft | 444 kts | 70° |
| 2026-05-06 05:12 | 61.61229 | -79.41603 | 38538 ft | 444 kts | 70° |
| 2026-05-06 05:13 | 61.63505 | -79.29552 | 38547 ft | 444 kts | 70° |
| 2026-05-06 05:13 | 61.65773 | -79.17470 | 38547 ft | 445 kts | 70° |
| 2026-05-06 05:14 | 61.68021 | -79.05423 | 38534 ft | 445 kts | 70° |
| 2026-05-06 05:14 | 61.70271 | -78.93288 | 38532 ft | 444 kts | 70° |
| 2026-05-06 05:15 | 61.72501 | -78.81186 | 38526 ft | 444 kts | 71° |
| 2026-05-06 05:15 | 61.74730 | -78.69016 | 38530 ft | 444 kts | 71° |
| 2026-05-06 05:16 | 61.76944 | -78.56852 | 38525 ft | 444 kts | 71° |
| 2026-05-06 05:16 | 61.79131 | -78.44758 | 38522 ft | 443 kts | 71° |
| 2026-05-06 05:17 | 61.81313 | -78.32614 | 38531 ft | 443 kts | 71° |
| 2026-05-06 05:17 | 61.83492 | -78.20408 | 38522 ft | 443 kts | 71° |
| 2026-05-06 05:18 | 61.85658 | -78.08200 | 38521 ft | 443 kts | 71° |
| 2026-05-06 05:18 | 61.87800 | -77.96050 | 38521 ft | 443 kts | 71° |
| 2026-05-06 05:19 | 61.89938 | -77.83844 | 38523 ft | 443 kts | 71° |
| 2026-05-06 05:19 | 61.92073 | -77.71579 | 38522 ft | 443 kts | 72° |
| 2026-05-06 05:20 | 61.94197 | -77.59291 | 38520 ft | 443 kts | 72° |
| 2026-05-06 05:20 | 61.96309 | -77.47000 | 38516 ft | 443 kts | 72° |
| 2026-05-06 05:21 | 61.98391 | -77.34797 | 38520 ft | 442 kts | 72° |
| 2026-05-06 05:21 | 62.00477 | -77.22486 | 38526 ft | 442 kts | 72° |
| 2026-05-06 05:22 | 62.02552 | -77.10170 | 38527 ft | 442 kts | 72° |
| 2026-05-06 05:22 | 62.04601 | -76.97921 | 38540 ft | 442 kts | 72° |
| 2026-05-06 05:23 | 62.06649 | -76.85596 | 38543 ft | 443 kts | 72° |
| 2026-05-06 05:23 | 62.09712 | -76.67004 | 38544 ft | 443 kts | 72° |
| 2026-05-06 05:24 | 62.11745 | -76.54562 | 38560 ft | 443 kts | 72° |
| 2026-05-06 05:24 | 62.13757 | -76.42165 | 38562 ft | 443 kts | 72° |
| 2026-05-06 05:25 | 62.15752 | -76.29790 | 38542 ft | 443 kts | 72° |
| 2026-05-06 05:25 | 62.17743 | -76.17350 | 38553 ft | 442 kts | 72° |
| 2026-05-06 05:26 | 62.19723 | -76.04892 | 38560 ft | 443 kts | 72° |
| 2026-05-06 05:26 | 62.21704 | -75.92337 | 38560 ft | 446 kts | 72° |
| 2026-05-06 05:27 | 62.23660 | -75.79856 | 38557 ft | 445 kts | 73° |
| 2026-05-06 05:27 | 62.25619 | -75.67272 | 38560 ft | 445 kts | 73° |
| 2026-05-06 05:28 | 62.27570 | -75.54645 | 38566 ft | 445 kts | 73° |
| 2026-05-06 05:28 | 62.29507 | -75.42017 | 38566 ft | 445 kts | 73° |
| 2026-05-06 05:29 | 62.31431 | -75.29388 | 38565 ft | 445 kts | 73° |
| 2026-05-06 05:29 | 62.33348 | -75.16710 | 38560 ft | 448 kts | 73° |
| 2026-05-06 05:30 | 62.35256 | -75.04001 | 38573 ft | 450 kts | 73° |
| 2026-05-06 05:30 | 62.37171 | -74.91152 | 38574 ft | 450 kts | 74° |
| 2026-05-06 05:31 | 62.39069 | -74.78317 | 38572 ft | 450 kts | 74° |
| 2026-05-06 05:31 | 62.40957 | -74.65452 | 38581 ft | 450 kts | 74° |
| 2026-05-06 05:32 | 62.42824 | -74.52641 | 38574 ft | 450 kts | 74° |
| 2026-05-06 05:32 | 62.44688 | -74.39742 | 38576 ft | 450 kts | 74° |
| 2026-05-06 05:33 | 62.46540 | -74.26838 | 38570 ft | 450 kts | 74° |
| 2026-05-06 05:33 | 62.48381 | -74.13908 | 38581 ft | 450 kts | 75° |
| 2026-05-06 05:34 | 62.50210 | -74.00960 | 38577 ft | 450 kts | 75° |
| 2026-05-06 05:34 | 62.52015 | -73.88087 | 38570 ft | 449 kts | 75° |
| 2026-05-06 05:35 | 62.53806 | -73.75208 | 38576 ft | 447 kts | 75° |
| 2026-05-06 05:35 | 62.55586 | -73.62308 | 38590 ft | 447 kts | 75° |
| 2026-05-06 05:36 | 62.57356 | -73.49384 | 38587 ft | 444 kts | 75° |
| 2026-05-06 05:36 | 62.59101 | -73.36543 | 38585 ft | 443 kts | 76° |
| 2026-05-06 05:37 | 62.60815 | -73.23818 | 38583 ft | 443 kts | 76° |
| 2026-05-06 05:37 | 62.62533 | -73.10975 | 38592 ft | 443 kts | 76° |
| 2026-05-06 05:38 | 62.64239 | -72.98112 | 38590 ft | 443 kts | 76° |
| 2026-05-06 05:38 | 62.65922 | -72.85314 | 38594 ft | 443 kts | 76° |
| 2026-05-06 05:39 | 62.67601 | -72.72453 | 38585 ft | 443 kts | 76° |
| 2026-05-06 05:39 | 62.69273 | -72.59536 | 38596 ft | 443 kts | 77° |
| 2026-05-06 05:40 | 62.70930 | -72.46630 | 38597 ft | 443 kts | 77° |
| 2026-05-06 05:40 | 62.72574 | -72.33713 | 38605 ft | 443 kts | 77° |
| 2026-05-06 05:41 | 62.74194 | -72.20888 | 38617 ft | 443 kts | 77° |
| 2026-05-06 05:41 | 62.75816 | -72.07932 | 38611 ft | 443 kts | 77° |
| 2026-05-06 05:42 | 62.77424 | -71.94977 | 38618 ft | 443 kts | 77° |
| 2026-05-06 05:42 | 62.79024 | -71.81976 | 38614 ft | 441 kts | 77° |
| 2026-05-06 05:43 | 62.80594 | -71.69120 | 38616 ft | 440 kts | 78° |
| 2026-05-06 05:43 | 62.82151 | -71.56248 | 38623 ft | 440 kts | 78° |
| 2026-05-06 05:44 | 62.83705 | -71.43289 | 38595 ft | 441 kts | 78° |
| 2026-05-06 05:44 | 62.85261 | -71.30207 | 38618 ft | 446 kts | 78° |
| 2026-05-06 05:45 | 62.86806 | -71.17102 | 38633 ft | 446 kts | 78° |
| 2026-05-06 05:45 | 62.88333 | -71.04027 | 38628 ft | 446 kts | 78° |
| 2026-05-06 05:46 | 62.89861 | -70.90873 | 38632 ft | 444 kts | 78° |
| 2026-05-06 05:46 | 62.91373 | -70.77741 | 38633 ft | 444 kts | 78° |
| 2026-05-06 05:47 | 62.92867 | -70.64656 | 38646 ft | 444 kts | 79° |
| 2026-05-06 05:47 | 62.94349 | -70.51569 | 38645 ft | 444 kts | 79° |
| 2026-05-06 05:48 | 62.95826 | -70.38406 | 38644 ft | 444 kts | 79° |
| 2026-05-06 05:48 | 62.97292 | -70.25234 | 38645 ft | 444 kts | 79° |
| 2026-05-06 05:49 | 62.98741 | -70.12106 | 38649 ft | 442 kts | 79° |
| 2026-05-06 05:49 | 63.00251 | -69.99085 | 38656 ft | 437 kts | 73° |
| 2026-05-06 05:50 | 63.02328 | -69.86602 | 38662 ft | 438 kts | 72° |
| 2026-05-06 05:50 | 63.04467 | -69.74017 | 38686 ft | 438 kts | 72° |
| 2026-05-06 05:51 | 63.06595 | -69.61501 | 38683 ft | 438 kts | 72° |
| 2026-05-06 05:51 | 63.08724 | -69.48900 | 38683 ft | 438 kts | 72° |
| 2026-05-06 05:52 | 63.10831 | -69.36351 | 38714 ft | 438 kts | 72° |
| 2026-05-06 05:52 | 63.12937 | -69.23720 | 38712 ft | 438 kts | 72° |
| 2026-05-06 05:53 | 63.15022 | -69.11127 | 38704 ft | 437 kts | 73° |
| 2026-05-06 05:53 | 63.17097 | -68.98512 | 38714 ft | 436 kts | 73° |
| 2026-05-06 05:54 | 63.19160 | -68.85883 | 38739 ft | 436 kts | 73° |
| 2026-05-06 05:54 | 63.21196 | -68.73338 | 38735 ft | 436 kts | 73° |
| 2026-05-06 05:55 | 63.23227 | -68.60731 | 38731 ft | 436 kts | 73° |
| 2026-05-06 05:55 | 63.25255 | -68.48059 | 38735 ft | 436 kts | 73° |
| 2026-05-06 05:56 | 63.27271 | -68.35372 | 38738 ft | 436 kts | 73° |
| 2026-05-06 05:56 | 63.29273 | -68.22681 | 38735 ft | 435 kts | 73° |
| 2026-05-06 05:57 | 63.31256 | -68.10029 | 38730 ft | 434 kts | 73° |
| 2026-05-06 05:57 | 63.33223 | -67.97389 | 38744 ft | 433 kts | 73° |
| 2026-05-06 05:58 | 63.35182 | -67.84708 | 38747 ft | 433 kts | 74° |
| 2026-05-06 05:58 | 63.37132 | -67.71992 | 38751 ft | 433 kts | 74° |
| 2026-05-06 05:59 | 63.39056 | -67.59365 | 38746 ft | 433 kts | 74° |
| 2026-05-06 05:59 | 63.40978 | -67.46653 | 38756 ft | 433 kts | 74° |
| 2026-05-06 06:00 | 63.42892 | -67.33899 | 38756 ft | 433 kts | 74° |
| 2026-05-06 06:00 | 63.44800 | -67.21103 | 38748 ft | 434 kts | 74° |
| 2026-05-06 06:01 | 63.46714 | -67.08163 | 38736 ft | 440 kts | 73° |
| 2026-05-06 06:01 | 63.48594 | -66.95362 | 38762 ft | 435 kts | 74° |
| 2026-05-06 06:02 | 63.50466 | -66.82518 | 38789 ft | 435 kts | 74° |
| 2026-05-06 06:02 | 63.52328 | -66.69645 | 38791 ft | 435 kts | 74° |
| 2026-05-06 06:03 | 63.54170 | -66.56819 | 38798 ft | 435 kts | 74° |
| 2026-05-06 06:03 | 63.56009 | -66.43918 | 38818 ft | 435 kts | 74° |
| 2026-05-06 06:04 | 63.57836 | -66.30995 | 38814 ft | 435 kts | 74° |
| 2026-05-06 06:04 | 63.59654 | -66.18044 | 38823 ft | 435 kts | 74° |
| 2026-05-06 06:05 | 63.61448 | -66.05163 | 38824 ft | 435 kts | 74° |
| 2026-05-06 06:05 | 63.63233 | -65.92250 | 38840 ft | 433 kts | 74° |
| 2026-05-06 06:06 | 63.65007 | -65.79307 | 38851 ft | 433 kts | 74° |
| 2026-05-06 06:06 | 63.66771 | -65.66347 | 38848 ft | 433 kts | 74° |
| 2026-05-06 06:07 | 63.68522 | -65.53374 | 38876 ft | 433 kts | 74° |
| 2026-05-06 06:07 | 63.70247 | -65.40495 | 38894 ft | 433 kts | 75° |
| 2026-05-06 06:08 | 63.71975 | -65.27486 | 38897 ft | 433 kts | 75° |
| 2026-05-06 06:08 | 63.73690 | -65.14478 | 38929 ft | 433 kts | 75° |
| 2026-05-06 06:09 | 63.75396 | -65.01432 | 38933 ft | 433 kts | 75° |
| 2026-05-06 06:09 | 63.77074 | -64.88494 | 38921 ft | 432 kts | 75° |
| 2026-05-06 06:10 | 63.78746 | -64.75491 | 38948 ft | 432 kts | 75° |
| 2026-05-06 06:10 | 63.80411 | -64.62445 | 38937 ft | 431 kts | 75° |
| 2026-05-06 06:11 | 63.82064 | -64.49382 | 38941 ft | 431 kts | 75° |
| 2026-05-06 06:11 | 63.83703 | -64.36324 | 38942 ft | 431 kts | 75° |
| 2026-05-06 06:12 | 63.85317 | -64.23351 | 38944 ft | 431 kts | 76° |
| 2026-05-06 06:12 | 63.86940 | -64.10203 | 38937 ft | 434 kts | 76° |
| 2026-05-06 06:13 | 63.88556 | -63.96987 | 38938 ft | 434 kts | 76° |
| 2026-05-06 06:13 | 63.90149 | -63.83856 | 38927 ft | 433 kts | 76° |
| 2026-05-06 06:14 | 63.91729 | -63.70728 | 38930 ft | 432 kts | 76° |
| 2026-05-06 06:14 | 63.93305 | -63.57548 | 38937 ft | 432 kts | 76° |
| 2026-05-06 06:15 | 63.94872 | -63.44340 | 38952 ft | 432 kts | 77° |
| 2026-05-06 06:15 | 63.96426 | -63.31140 | 38947 ft | 432 kts | 77° |
| 2026-05-06 06:16 | 63.97955 | -63.18040 | 38961 ft | 431 kts | 77° |
| 2026-05-06 06:16 | 63.99481 | -63.04862 | 38949 ft | 429 kts | 77° |
| 2026-05-06 06:17 | 64.00007 | -62.98201 | 38951 ft | 425 kts | 90° |
| 2026-05-06 06:17 | 64.00038 | -62.91476 | 38967 ft | 426 kts | 90° |
| 2026-05-06 06:17 | 64.00205 | -62.77985 | 38968 ft | 426 kts | 90° |
| 2026-05-06 06:18 | 64.00321 | -62.64603 | 38936 ft | 426 kts | 91° |
| 2026-05-06 06:18 | 64.00422 | -62.51056 | 38968 ft | 428 kts | 91° |
| 2026-05-06 06:19 | 64.00510 | -62.37485 | 38967 ft | 428 kts | 91° |
| 2026-05-06 06:19 | 64.00586 | -62.23922 | 38977 ft | 428 kts | 91° |
| 2026-05-06 06:20 | 64.00648 | -62.10462 | 38981 ft | 428 kts | 91° |
| 2026-05-06 06:20 | 64.00698 | -61.96939 | 38981 ft | 427 kts | 91° |
| 2026-05-06 06:21 | 64.00735 | -61.83382 | 38988 ft | 427 kts | 91° |
| 2026-05-06 06:21 | 64.00760 | -61.69855 | 39001 ft | 427 kts | 92° |
| 2026-05-06 06:22 | 64.00772 | -61.56384 | 39004 ft | 427 kts | 92° |
| 2026-05-06 06:22 | 64.00772 | -61.42863 | 39004 ft | 427 kts | 92° |
| 2026-05-06 06:23 | 64.00759 | -61.29325 | 39004 ft | 428 kts | 92° |
| 2026-05-06 06:23 | 64.00733 | -61.15757 | 39007 ft | 428 kts | 92° |
| 2026-05-06 06:24 | 64.00695 | -61.02214 | 38992 ft | 428 kts | 92° |
| 2026-05-06 06:24 | 64.00645 | -60.88727 | 39021 ft | 430 kts | 93° |
| 2026-05-06 06:25 | 64.00581 | -60.75090 | 39027 ft | 430 kts | 93° |
| 2026-05-06 06:26 | 64.00461 | -60.54659 | 39027 ft | 430 kts | 93° |
| 2026-05-06 06:26 | 64.00365 | -60.41030 | 39024 ft | 431 kts | 93° |
| 2026-05-06 06:27 | 64.00259 | -60.27492 | 39044 ft | 431 kts | 93° |
| 2026-05-06 06:27 | 64.00143 | -60.13844 | 39044 ft | 431 kts | 93° |
| 2026-05-06 06:28 | 64.00209 | -60.00205 | 39031 ft | 433 kts | 82° |
| 2026-05-06 06:28 | 64.01927 | -59.86955 | 39038 ft | 437 kts | 76° |
| 2026-05-06 06:29 | 64.03707 | -59.73808 | 39063 ft | 437 kts | 76° |
| 2026-05-06 06:29 | 64.05506 | -59.60550 | 39047 ft | 437 kts | 76° |
| 2026-05-06 06:30 | 64.07293 | -59.47297 | 39062 ft | 437 kts | 76° |
| 2026-05-06 06:30 | 64.09072 | -59.33995 | 39084 ft | 438 kts | 76° |
| 2026-05-06 06:31 | 64.10825 | -59.20779 | 39091 ft | 438 kts | 77° |
| 2026-05-06 06:31 | 64.12579 | -59.07448 | 39086 ft | 437 kts | 77° |
| 2026-05-06 06:32 | 64.14321 | -58.94104 | 39100 ft | 437 kts | 77° |
| 2026-05-06 06:32 | 64.16050 | -58.80743 | 39100 ft | 437 kts | 77° |
| 2026-05-06 06:33 | 64.17753 | -58.67481 | 39103 ft | 437 kts | 77° |
| 2026-05-06 06:33 | 64.19454 | -58.54116 | 39110 ft | 436 kts | 77° |
| 2026-05-06 06:34 | 64.21139 | -58.40761 | 39113 ft | 436 kts | 77° |
| 2026-05-06 06:34 | 64.22814 | -58.27382 | 39121 ft | 436 kts | 77° |
| 2026-05-06 06:35 | 64.24476 | -58.13987 | 39135 ft | 436 kts | 77° |
| 2026-05-06 06:35 | 64.26118 | -58.00646 | 39132 ft | 436 kts | 78° |
| 2026-05-06 06:36 | 64.27757 | -57.87203 | 39146 ft | 436 kts | 78° |
| 2026-05-06 06:36 | 64.29385 | -57.73741 | 39149 ft | 436 kts | 78° |
| 2026-05-06 06:37 | 64.30996 | -57.60301 | 39151 ft | 436 kts | 78° |
| 2026-05-06 06:37 | 64.32588 | -57.46897 | 39162 ft | 436 kts | 78° |
| 2026-05-06 06:38 | 64.34179 | -57.33389 | 39165 ft | 436 kts | 78° |
| 2026-05-06 06:38 | 64.35756 | -57.19876 | 39165 ft | 436 kts | 78° |
| 2026-05-06 06:39 | 64.37058 | -57.08620 | 39162 ft | 436 kts | 78° |
| 2026-05-06 06:39 | 64.38860 | -56.92905 | 39170 ft | 436 kts | 78° |
| 2026-05-06 06:40 | 64.40401 | -56.79333 | 39170 ft | 436 kts | 79° |
| 2026-05-06 06:40 | 64.41673 | -56.68046 | 39163 ft | 436 kts | 78° |
| 2026-05-06 06:41 | 64.43182 | -56.54517 | 39177 ft | 433 kts | 78° |
| 2026-05-06 06:41 | 64.44917 | -56.38818 | 39186 ft | 433 kts | 78° |
| 2026-05-06 06:42 | 64.46159 | -56.27472 | 39187 ft | 433 kts | 78° |
| 2026-05-06 06:42 | 64.47619 | -56.14021 | 39195 ft | 433 kts | 79° |
| 2026-05-06 06:43 | 64.49077 | -56.00454 | 39200 ft | 433 kts | 79° |
| 2026-05-06 06:43 | 64.50520 | -55.86899 | 39197 ft | 434 kts | 79° |
| 2026-05-06 06:44 | 64.51954 | -55.73294 | 39206 ft | 434 kts | 79° |
| 2026-05-06 06:44 | 64.53365 | -55.59779 | 39199 ft | 433 kts | 78° |
| 2026-05-06 06:45 | 64.54767 | -55.46214 | 39204 ft | 431 kts | 79° |
| 2026-05-06 06:45 | 64.56153 | -55.32668 | 39209 ft | 431 kts | 79° |
| 2026-05-06 06:46 | 64.57529 | -55.19090 | 39208 ft | 431 kts | 79° |
| 2026-05-06 06:46 | 64.58883 | -55.05583 | 39211 ft | 431 kts | 79° |
| 2026-05-06 06:47 | 64.60234 | -54.91981 | 39214 ft | 431 kts | 79° |
| 2026-05-06 06:47 | 64.61570 | -54.78385 | 39214 ft | 431 kts | 79° |
| 2026-05-06 06:48 | 64.62896 | -54.64750 | 39216 ft | 431 kts | 79° |
| 2026-05-06 06:48 | 64.64201 | -54.51183 | 39216 ft | 433 kts | 79° |
| 2026-05-06 06:49 | 64.65506 | -54.37487 | 39216 ft | 433 kts | 79° |
| 2026-05-06 06:49 | 64.66797 | -54.23779 | 39216 ft | 433 kts | 79° |
| 2026-05-06 06:50 | 64.68076 | -54.10063 | 39219 ft | 433 kts | 79° |
| 2026-05-06 06:50 | 64.69343 | -53.96314 | 39219 ft | 433 kts | 79° |
| 2026-05-06 06:51 | 64.70587 | -53.82666 | 39219 ft | 433 kts | 79° |
| 2026-05-06 06:51 | 64.71829 | -53.68893 | 39219 ft | 432 kts | 79° |
| 2026-05-06 06:52 | 64.73053 | -53.55166 | 39222 ft | 430 kts | 79° |
| 2026-05-06 06:52 | 64.74256 | -53.41513 | 39221 ft | 427 kts | 79° |
| 2026-05-06 06:53 | 64.75437 | -53.27964 | 39222 ft | 428 kts | 79° |
| 2026-05-06 06:53 | 64.76614 | -53.14316 | 39217 ft | 428 kts | 79° |
| 2026-05-06 06:54 | 64.77776 | -53.00669 | 39214 ft | 427 kts | 79° |
| 2026-05-06 06:54 | 64.78926 | -52.87002 | 39208 ft | 427 kts | 79° |
| 2026-05-06 06:55 | 64.80058 | -52.73401 | 39214 ft | 428 kts | 79° |
| 2026-05-06 06:55 | 64.81184 | -52.59701 | 39208 ft | 427 kts | 79° |
| 2026-05-06 06:56 | 64.82298 | -52.45992 | 39196 ft | 430 kts | 79° |
| 2026-05-06 06:56 | 64.83409 | -52.32144 | 39204 ft | 432 kts | 79° |
| 2026-05-06 06:57 | 64.84501 | -52.18361 | 39198 ft | 432 kts | 79° |
| 2026-05-06 06:57 | 64.85587 | -52.04480 | 39199 ft | 432 kts | 79° |
| 2026-05-06 06:58 | 64.86658 | -51.90619 | 39195 ft | 432 kts | 79° |
| 2026-05-06 06:58 | 64.87711 | -51.76803 | 39196 ft | 432 kts | 79° |
| 2026-05-06 06:59 | 64.88758 | -51.62889 | 39197 ft | 432 kts | 79° |
| 2026-05-06 06:59 | 64.89793 | -51.48966 | 39188 ft | 432 kts | 79° |
| 2026-05-06 07:00 | 64.90818 | -51.34978 | 39194 ft | 436 kts | 79° |
| 2026-05-06 07:00 | 64.91829 | -51.20989 | 39194 ft | 436 kts | 79° |
| 2026-05-06 07:01 | 64.92834 | -51.06893 | 39200 ft | 437 kts | 79° |
| 2026-05-06 07:01 | 64.93832 | -50.92750 | 39201 ft | 437 kts | 79° |
| 2026-05-06 07:02 | 64.94818 | -50.78602 | 39194 ft | 437 kts | 79° |
| 2026-05-06 07:02 | 64.95784 | -50.64567 | 39195 ft | 437 kts | 79° |
| 2026-05-06 07:03 | 64.96747 | -50.50397 | 39199 ft | 437 kts | 79° |
| 2026-05-06 07:03 | 64.97697 | -50.36208 | 39202 ft | 439 kts | 79° |
| 2026-05-06 07:04 | 64.98640 | -50.21940 | 39203 ft | 440 kts | 79° |
| 2026-05-06 07:04 | 64.99563 | -50.07785 | 39201 ft | 440 kts | 79° |
| 2026-05-06 07:05 | 65.00146 | -49.93394 | 39206 ft | 441 kts | 84° |
| 2026-05-06 07:05 | 65.00559 | -49.78922 | 39200 ft | 441 kts | 83° |
| 2026-05-06 07:06 | 65.01008 | -49.64450 | 39196 ft | 441 kts | 83° |
| 2026-05-06 07:06 | 65.01452 | -49.50003 | 39201 ft | 441 kts | 83° |
| 2026-05-06 07:07 | 65.01880 | -49.35628 | 39201 ft | 441 kts | 84° |
| 2026-05-06 07:07 | 65.02299 | -49.21111 | 39206 ft | 444 kts | 83° |
| 2026-05-06 07:08 | 65.02705 | -49.06518 | 39206 ft | 445 kts | 83° |
| 2026-05-06 07:08 | 65.03094 | -48.92037 | 39203 ft | 445 kts | 83° |
| 2026-05-06 07:09 | 65.03472 | -48.77441 | 39210 ft | 444 kts | 83° |
| 2026-05-06 07:09 | 65.03835 | -48.62837 | 39192 ft | 444 kts | 83° |
| 2026-05-06 07:10 | 65.04184 | -48.48253 | 39191 ft | 444 kts | 83° |
| 2026-05-06 07:10 | 65.04519 | -48.33664 | 39190 ft | 444 kts | 84° |
| 2026-05-06 07:11 | 65.04837 | -48.19153 | 39192 ft | 444 kts | 84° |
| 2026-05-06 07:11 | 65.05145 | -48.04510 | 39185 ft | 447 kts | 83° |
| 2026-05-06 07:12 | 65.05439 | -47.89793 | 39182 ft | 447 kts | 83° |
| 2026-05-06 07:12 | 65.05719 | -47.75091 | 39179 ft | 448 kts | 83° |
| 2026-05-06 07:13 | 65.05983 | -47.60449 | 39177 ft | 448 kts | 83° |
| 2026-05-06 07:13 | 65.06234 | -47.45721 | 39173 ft | 447 kts | 84° |
| 2026-05-06 07:14 | 65.06470 | -47.30996 | 39169 ft | 447 kts | 84° |
| 2026-05-06 07:14 | 65.06692 | -47.16289 | 39164 ft | 448 kts | 84° |
| 2026-05-06 07:15 | 65.06898 | -47.01648 | 39163 ft | 448 kts | 84° |
| 2026-05-06 07:15 | 65.07092 | -46.86897 | 39159 ft | 448 kts | 84° |
| 2026-05-06 07:16 | 65.07270 | -46.72143 | 39157 ft | 448 kts | 84° |
| 2026-05-06 07:16 | 65.07434 | -46.57415 | 39159 ft | 448 kts | 84° |
| 2026-05-06 07:17 | 65.07584 | -46.42753 | 39166 ft | 448 kts | 84° |
| 2026-05-06 07:17 | 65.07719 | -46.27969 | 39160 ft | 448 kts | 85° |
| 2026-05-06 07:18 | 65.07840 | -46.13189 | 39159 ft | 448 kts | 85° |
| 2026-05-06 07:18 | 65.07947 | -45.98434 | 39158 ft | 449 kts | 85° |
| 2026-05-06 07:19 | 65.08039 | -45.83743 | 39183 ft | 449 kts | 84° |
| 2026-05-06 07:19 | 65.08116 | -45.68894 | 39167 ft | 451 kts | 85° |
| 2026-05-06 07:20 | 65.08179 | -45.54021 | 39165 ft | 451 kts | 85° |
| 2026-05-06 07:20 | 65.08227 | -45.39169 | 39167 ft | 451 kts | 85° |
| 2026-05-06 07:21 | 65.08260 | -45.24370 | 39194 ft | 452 kts | 85° |
| 2026-05-06 07:21 | 65.08279 | -45.09472 | 39187 ft | 452 kts | 85° |
| 2026-05-06 07:22 | 65.08284 | -44.94567 | 39192 ft | 452 kts | 85° |
| 2026-05-06 07:22 | 65.08273 | -44.79689 | 39225 ft | 452 kts | 85° |
| 2026-05-06 07:23 | 65.08248 | -44.64773 | 39241 ft | 453 kts | 85° |
| 2026-05-06 07:23 | 65.08207 | -44.49908 | 39252 ft | 455 kts | 85° |
| 2026-05-06 07:24 | 65.08152 | -44.34914 | 39316 ft | 455 kts | 85° |
| 2026-05-06 07:24 | 65.08082 | -44.19938 | 39320 ft | 455 kts | 86° |
| 2026-05-06 07:25 | 65.07997 | -44.04934 | 39344 ft | 456 kts | 86° |
| 2026-05-06 07:25 | 65.07949 | -43.97525 | 39447 ft | 456 kts | 86° |
| 2026-05-06 07:25 | 65.07897 | -43.90001 | 39443 ft | 456 kts | 86° |
| 2026-05-06 07:26 | 65.07781 | -43.74980 | 39442 ft | 456 kts | 86° |
| 2026-05-06 07:26 | 65.07650 | -43.59974 | 39440 ft | 456 kts | 86° |
| 2026-05-06 07:27 | 65.07505 | -43.44931 | 39553 ft | 458 kts | 86° |
| 2026-05-06 07:27 | 65.07344 | -43.29886 | 39542 ft | 460 kts | 86° |
| 2026-05-06 07:28 | 65.07166 | -43.14739 | 39550 ft | 460 kts | 86° |
| 2026-05-06 07:28 | 65.06872 | -42.92025 | 39606 ft | 460 kts | 86° |
| 2026-05-06 07:29 | 65.06657 | -42.76969 | 39601 ft | 460 kts | 87° |
| 2026-05-06 07:29 | 65.06427 | -42.61809 | 39608 ft | 460 kts | 87° |
| 2026-05-06 07:30 | 65.06180 | -42.46668 | 39624 ft | 461 kts | 87° |
| 2026-05-06 07:30 | 65.05919 | -42.31502 | 39643 ft | 462 kts | 87° |
| 2026-05-06 07:31 | 65.05641 | -42.16347 | 39626 ft | 464 kts | 87° |
| 2026-05-06 07:31 | 65.05346 | -42.01071 | 39626 ft | 464 kts | 87° |
| 2026-05-06 07:32 | 65.05036 | -41.85827 | 39623 ft | 464 kts | 87° |
| 2026-05-06 07:32 | 65.04709 | -41.70522 | 39623 ft | 466 kts | 88° |
| 2026-05-06 07:33 | 65.04368 | -41.55305 | 39627 ft | 466 kts | 88° |
| 2026-05-06 07:33 | 65.04010 | -41.39981 | 39631 ft | 466 kts | 88° |
| 2026-05-06 07:34 | 65.03636 | -41.24682 | 39602 ft | 466 kts | 88° |
| 2026-05-06 07:34 | 65.03245 | -41.09333 | 39587 ft | 469 kts | 88° |
| 2026-05-06 07:35 | 65.02841 | -40.94004 | 39584 ft | 470 kts | 88° |
| 2026-05-06 07:35 | 65.02422 | -40.78584 | 39566 ft | 470 kts | 88° |
| 2026-05-06 07:36 | 65.01990 | -40.63178 | 39577 ft | 470 kts | 89° |
| 2026-05-06 07:36 | 65.01541 | -40.47706 | 39569 ft | 471 kts | 89° |
| 2026-05-06 07:37 | 65.01081 | -40.32358 | 39559 ft | 471 kts | 89° |
| 2026-05-06 07:37 | 65.00603 | -40.16889 | 39559 ft | 471 kts | 89° |
| 2026-05-06 07:38 | 65.00097 | -40.01457 | 39584 ft | 474 kts | 91° |
| 2026-05-06 07:38 | 64.98980 | -39.86008 | 39550 ft | 478 kts | 94° |
| 2026-05-06 07:39 | 64.97956 | -39.70625 | 39552 ft | 477 kts | 94° |
| 2026-05-06 07:39 | 64.96934 | -39.55149 | 39557 ft | 477 kts | 94° |
| 2026-05-06 07:40 | 64.95900 | -39.39689 | 39552 ft | 478 kts | 94° |
| 2026-05-06 07:40 | 64.94847 | -39.24201 | 39551 ft | 478 kts | 94° |
| 2026-05-06 07:41 | 64.93785 | -39.08833 | 39551 ft | 478 kts | 94° |
| 2026-05-06 07:41 | 64.92701 | -38.93388 | 39551 ft | 478 kts | 94° |
| 2026-05-06 07:42 | 64.91600 | -38.77932 | 39585 ft | 478 kts | 94° |
| 2026-05-06 07:42 | 64.90480 | -38.62470 | 39552 ft | 479 kts | 95° |
| 2026-05-06 07:43 | 64.89352 | -38.47107 | 39564 ft | 479 kts | 95° |
| 2026-05-06 07:43 | 64.88200 | -38.31668 | 39556 ft | 480 kts | 95° |
| 2026-05-06 07:44 | 64.87032 | -38.16216 | 39551 ft | 480 kts | 95° |
| 2026-05-06 07:44 | 64.85846 | -38.00765 | 39548 ft | 480 kts | 95° |
| 2026-05-06 07:45 | 64.84652 | -37.85426 | 39551 ft | 480 kts | 95° |
| 2026-05-06 07:45 | 64.83436 | -37.70036 | 39557 ft | 480 kts | 95° |
| 2026-05-06 07:46 | 64.82201 | -37.54614 | 39577 ft | 480 kts | 96° |
| 2026-05-06 07:46 | 64.80958 | -37.39297 | 39560 ft | 481 kts | 96° |
| 2026-05-06 07:47 | 64.79688 | -37.23868 | 39549 ft | 482 kts | 96° |
| 2026-05-06 07:47 | 64.78405 | -37.08476 | 39548 ft | 482 kts | 96° |
| 2026-05-06 07:48 | 64.77102 | -36.93063 | 39549 ft | 482 kts | 96° |
| 2026-05-06 07:48 | 64.75782 | -36.77658 | 39548 ft | 482 kts | 96° |
| 2026-05-06 07:49 | 64.74459 | -36.62408 | 39548 ft | 482 kts | 97° |
| 2026-05-06 07:49 | 64.73107 | -36.47021 | 39546 ft | 482 kts | 97° |
| 2026-05-06 07:50 | 64.71740 | -36.31651 | 39577 ft | 483 kts | 97° |
| 2026-05-06 07:50 | 64.70354 | -36.16273 | 39544 ft | 483 kts | 97° |
| 2026-05-06 07:51 | 64.68964 | -36.01039 | 39544 ft | 484 kts | 97° |
| 2026-05-06 07:51 | 64.67545 | -35.85677 | 39543 ft | 484 kts | 97° |
| 2026-05-06 07:52 | 64.66109 | -35.70330 | 39538 ft | 484 kts | 97° |
| 2026-05-06 07:52 | 64.64658 | -35.55000 | 39538 ft | 484 kts | 98° |
| 2026-05-06 07:53 | 64.63204 | -35.39808 | 39536 ft | 484 kts | 98° |
| 2026-05-06 07:53 | 64.61720 | -35.24504 | 39535 ft | 485 kts | 98° |
| 2026-05-06 07:54 | 64.60219 | -35.09191 | 39534 ft | 485 kts | 98° |
| 2026-05-06 07:54 | 64.58701 | -34.93891 | 39533 ft | 485 kts | 98° |
| 2026-05-06 07:55 | 64.57181 | -34.78748 | 39530 ft | 485 kts | 98° |
| 2026-05-06 07:55 | 64.55632 | -34.63487 | 39531 ft | 485 kts | 98° |
| 2026-05-06 07:56 | 64.54067 | -34.48234 | 39522 ft | 485 kts | 99° |
| 2026-05-06 07:56 | 64.52488 | -34.33022 | 39533 ft | 485 kts | 99° |
| 2026-05-06 07:57 | 64.50901 | -34.17895 | 39521 ft | 486 kts | 99° |
| 2026-05-06 07:57 | 64.49286 | -34.02669 | 39511 ft | 486 kts | 99° |
| 2026-05-06 07:58 | 64.47656 | -33.87477 | 39525 ft | 485 kts | 99° |
| 2026-05-06 07:58 | 64.46014 | -33.72336 | 39513 ft | 485 kts | 99° |
| 2026-05-06 07:59 | 64.44366 | -33.57284 | 39512 ft | 485 kts | 100° |
| 2026-05-06 07:59 | 64.42690 | -33.42147 | 39509 ft | 485 kts | 100° |
| 2026-05-06 08:00 | 64.40998 | -33.27035 | 39511 ft | 486 kts | 100° |
| 2026-05-06 08:00 | 64.39291 | -33.11930 | 39509 ft | 487 kts | 100° |
| 2026-05-06 08:01 | 64.37564 | -32.96805 | 39506 ft | 487 kts | 101° |
| 2026-05-06 08:01 | 64.35833 | -32.81804 | 39506 ft | 487 kts | 101° |
| 2026-05-06 08:02 | 64.34080 | -32.66766 | 39510 ft | 485 kts | 101° |
| 2026-05-06 08:02 | 64.32312 | -32.51749 | 39493 ft | 485 kts | 101° |
| 2026-05-06 08:03 | 64.30539 | -32.36836 | 39492 ft | 486 kts | 101° |
| 2026-05-06 08:03 | 64.28739 | -32.21845 | 39492 ft | 486 kts | 101° |
| 2026-05-06 08:04 | 64.26927 | -32.06899 | 39484 ft | 486 kts | 101° |
| 2026-05-06 08:04 | 64.25095 | -31.91941 | 39484 ft | 486 kts | 101° |
| 2026-05-06 08:05 | 64.23260 | -31.77092 | 39484 ft | 486 kts | 102° |
| 2026-05-06 08:05 | 64.21397 | -31.62170 | 39510 ft | 486 kts | 102° |
| 2026-05-06 08:06 | 64.19524 | -31.47301 | 39477 ft | 485 kts | 102° |
| 2026-05-06 08:06 | 64.17634 | -31.32437 | 39471 ft | 486 kts | 102° |
| 2026-05-06 08:07 | 64.15737 | -31.17664 | 39468 ft | 486 kts | 102° |
| 2026-05-06 08:07 | 64.13812 | -31.02803 | 39460 ft | 487 kts | 102° |
| 2026-05-06 08:08 | 64.11878 | -30.87992 | 39449 ft | 487 kts | 103° |
| 2026-05-06 08:08 | 64.09927 | -30.73157 | 39447 ft | 487 kts | 103° |
| 2026-05-06 08:09 | 64.07977 | -30.58450 | 39446 ft | 487 kts | 103° |
| 2026-05-06 08:09 | 64.06003 | -30.43685 | 39459 ft | 487 kts | 103° |
| 2026-05-06 08:10 | 64.04013 | -30.28927 | 39430 ft | 487 kts | 103° |
| 2026-05-06 08:10 | 64.02007 | -30.14163 | 39416 ft | 487 kts | 104° |
| 2026-05-06 08:11 | 64.00289 | -29.99388 | 39419 ft | 483 kts | 95° |
| 2026-05-06 08:11 | 64.00015 | -29.91838 | 39385 ft | 474 kts | 82° |
| 2026-05-06 08:11 | 64.00480 | -29.84511 | 39422 ft | 468 kts | 75° |
| 2026-05-06 08:12 | 64.01159 | -29.69633 | 39435 ft | 474 kts | 80° |
| 2026-05-06 08:12 | 64.01699 | -29.54656 | 39410 ft | 473 kts | 80° |
| 2026-05-06 08:13 | 64.02222 | -29.39783 | 39404 ft | 473 kts | 81° |
| 2026-05-06 08:13 | 64.02732 | -29.24853 | 39396 ft | 473 kts | 82° |
| 2026-05-06 08:14 | 64.03228 | -29.09877 | 39387 ft | 473 kts | 81° |
| 2026-05-06 08:14 | 64.03708 | -28.94900 | 39387 ft | 473 kts | 81° |
| 2026-05-06 08:15 | 64.04173 | -28.79918 | 39384 ft | 473 kts | 82° |
| 2026-05-06 08:15 | 64.04619 | -28.65030 | 39371 ft | 474 kts | 82° |
| 2026-05-06 08:16 | 64.05053 | -28.50033 | 39374 ft | 473 kts | 83° |
| 2026-05-06 08:16 | 64.05471 | -28.35045 | 39363 ft | 473 kts | 83° |
| 2026-05-06 08:17 | 64.05871 | -28.20170 | 39363 ft | 473 kts | 83° |
| 2026-05-06 08:17 | 64.06259 | -28.05171 | 39360 ft | 473 kts | 83° |
| 2026-05-06 08:18 | 64.06631 | -27.90158 | 39351 ft | 473 kts | 83° |
| 2026-05-06 08:18 | 64.06988 | -27.75144 | 39386 ft | 473 kts | 83° |
| 2026-05-06 08:19 | 64.07329 | -27.60173 | 39195 ft | 471 kts | 83° |
| 2026-05-06 08:19 | 64.07490 | -27.52806 | 38975 ft | 470 kts | 84° |
| 2026-05-06 08:19 | 64.07651 | -27.45345 | 38704 ft | 470 kts | 84° |
| 2026-05-06 08:20 | 64.07807 | -27.37880 | 38441 ft | 470 kts | 84° |
| 2026-05-06 08:20 | 64.07959 | -27.30425 | 38174 ft | 470 kts | 84° |
| 2026-05-06 08:20 | 64.08108 | -27.22958 | 37904 ft | 470 kts | 84° |
| 2026-05-06 08:20 | 64.08253 | -27.15494 | 37647 ft | 470 kts | 84° |
| 2026-05-06 08:21 | 64.08394 | -27.08022 | 37389 ft | 470 kts | 84° |
| 2026-05-06 08:21 | 64.08531 | -27.00584 | 37140 ft | 470 kts | 84° |
| 2026-05-06 08:21 | 64.08664 | -26.93115 | 36893 ft | 470 kts | 84° |
| 2026-05-06 08:21 | 64.08792 | -26.85753 | 36683 ft | 470 kts | 84° |
| 2026-05-06 08:22 | 64.08919 | -26.78281 | 36436 ft | 470 kts | 84° |
| 2026-05-06 08:22 | 64.09039 | -26.70811 | 36196 ft | 470 kts | 83° |
| 2026-05-06 08:22 | 64.09158 | -26.63332 | 35959 ft | 471 kts | 84° |
| 2026-05-06 08:22 | 64.09272 | -26.55891 | 35723 ft | 470 kts | 84° |
| 2026-05-06 08:23 | 64.09382 | -26.48452 | 35484 ft | 470 kts | 85° |
| 2026-05-06 08:23 | 64.09489 | -26.40976 | 35256 ft | 470 kts | 85° |
| 2026-05-06 08:23 | 64.09591 | -26.33507 | 35021 ft | 470 kts | 84° |
| 2026-05-06 08:23 | 64.09690 | -26.26141 | 34795 ft | 470 kts | 85° |
| 2026-05-06 08:24 | 64.09784 | -26.18678 | 34570 ft | 469 kts | 84° |
| 2026-05-06 08:24 | 64.09874 | -26.11282 | 34007 ft | 464 kts | 84° |
| 2026-05-06 08:24 | 64.09961 | -26.03892 | 33139 ft | 464 kts | 85° |
| 2026-05-06 08:24 | 64.10044 | -25.96529 | 32300 ft | 462 kts | 85° |
| 2026-05-06 08:25 | 64.10123 | -25.89218 | 31471 ft | 460 kts | 85° |
| 2026-05-06 08:25 | 64.10196 | -25.81918 | 30617 ft | 459 kts | 85° |
| 2026-05-06 08:25 | 64.10267 | -25.74647 | 29654 ft | 456 kts | 86° |
| 2026-05-06 08:25 | 64.10332 | -25.67448 | 28793 ft | 450 kts | 86° |
| 2026-05-06 08:26 | 64.10393 | -25.60439 | 28033 ft | 442 kts | 86° |
| 2026-05-06 08:26 | 64.10451 | -25.53474 | 27310 ft | 435 kts | 85° |
| 2026-05-06 08:26 | 64.10504 | -25.46613 | 26622 ft | 427 kts | 85° |
| 2026-05-06 08:26 | 64.10554 | -25.39871 | 25964 ft | 420 kts | 86° |
| 2026-05-06 08:27 | 64.10600 | -25.33273 | 25346 ft | 413 kts | 86° |
| 2026-05-06 08:27 | 64.10644 | -25.26769 | 24746 ft | 406 kts | 86° |
| 2026-05-06 08:27 | 64.10686 | -25.20373 | 24153 ft | 399 kts | 86° |
| 2026-05-06 08:27 | 64.10723 | -25.14074 | 23492 ft | 393 kts | 85° |
| 2026-05-06 08:28 | 64.10756 | -25.07948 | 22814 ft | 387 kts | 86° |
| 2026-05-06 08:28 | 64.10788 | -25.01832 | 22182 ft | 381 kts | 86° |
| 2026-05-06 08:28 | 64.10817 | -24.95813 | 21545 ft | 376 kts | 86° |
| 2026-05-06 08:28 | 64.10822 | -24.89882 | 20935 ft | 372 kts | 90° |
| 2026-05-06 08:29 | 64.10269 | -24.84073 | 20269 ft | 376 kts | 106° |
| 2026-05-06 08:29 | 64.09393 | -24.78491 | 19650 ft | 372 kts | 105° |
| 2026-05-06 08:29 | 64.08534 | -24.72960 | 19061 ft | 369 kts | 105° |
| 2026-05-06 08:29 | 64.07669 | -24.67472 | 18469 ft | 365 kts | 105° |
| 2026-05-06 08:30 | 64.06803 | -24.62030 | 17813 ft | 362 kts | 106° |
| 2026-05-06 08:30 | 64.05940 | -24.56641 | 17123 ft | 361 kts | 105° |
| 2026-05-06 08:30 | 64.05093 | -24.51367 | 16567 ft | 356 kts | 106° |
| 2026-05-06 08:30 | 64.04239 | -24.46071 | 15949 ft | 354 kts | 106° |
| 2026-05-06 08:31 | 64.03394 | -24.40830 | 15344 ft | 351 kts | 107° |
| 2026-05-06 08:31 | 64.02548 | -24.35606 | 14763 ft | 349 kts | 105° |
| 2026-05-06 08:31 | 64.01709 | -24.30444 | 14231 ft | 347 kts | 107° |
| 2026-05-06 08:31 | 64.00874 | -24.25330 | 13851 ft | 338 kts | 107° |
| 2026-05-06 08:32 | 64.00069 | -24.20409 | 13555 ft | 329 kts | 105° |
| 2026-05-06 08:32 | 63.99282 | -24.15583 | 13263 ft | 319 kts | 107° |
| 2026-05-06 08:32 | 63.98527 | -24.10987 | 12997 ft | 310 kts | 107° |
| 2026-05-06 08:32 | 63.97782 | -24.06453 | 12737 ft | 302 kts | 105° |
| 2026-05-06 08:33 | 63.97051 | -24.02042 | 12505 ft | 293 kts | 105° |
| 2026-05-06 08:33 | 63.96344 | -23.97769 | 12310 ft | 284 kts | 107° |
| 2026-05-06 08:33 | 63.95658 | -23.93635 | 12092 ft | 276 kts | 104° |
| 2026-05-06 08:33 | 63.94984 | -23.89553 | 11663 ft | 277 kts | 106° |
| 2026-05-06 08:34 | 63.94301 | -23.85455 | 11289 ft | 276 kts | 108° |
| 2026-05-06 08:34 | 63.92943 | -23.77348 | 10831 ft | 275 kts | 108° |
| 2026-05-06 08:34 | 63.92262 | -23.73287 | 10623 ft | 274 kts | 106° |
| 2026-05-06 08:35 | 63.91590 | -23.69275 | 10420 ft | 273 kts | 106° |
| 2026-05-06 08:35 | 63.90913 | -23.65247 | 10214 ft | 273 kts | 107° |
| 2026-05-06 08:35 | 63.90235 | -23.61233 | 10013 ft | 272 kts | 108° |
| 2026-05-06 08:35 | 63.89558 | -23.57228 | 9788 ft | 272 kts | 108° |
| 2026-05-06 08:36 | 63.88877 | -23.53226 | 9575 ft | 270 kts | 108° |
| 2026-05-06 08:36 | 63.88205 | -23.49271 | 9370 ft | 266 kts | 106° |
| 2026-05-06 08:36 | 63.87556 | -23.45458 | 9150 ft | 259 kts | 108° |
| 2026-05-06 08:36 | 63.86914 | -23.41678 | 8934 ft | 254 kts | 105° |
| 2026-05-06 08:37 | 63.86285 | -23.37996 | 8731 ft | 248 kts | 107° |
| 2026-05-06 08:37 | 63.85661 | -23.34350 | 8531 ft | 247 kts | 107° |
| 2026-05-06 08:37 | 63.85038 | -23.30730 | 8306 ft | 246 kts | 108° |
| 2026-05-06 08:37 | 63.84418 | -23.27114 | 8107 ft | 245 kts | 105° |
| 2026-05-06 08:38 | 63.83805 | -23.23561 | 7904 ft | 240 kts | 104° |
| 2026-05-06 08:38 | 63.83207 | -23.20068 | 7688 ft | 235 kts | 105° |
| 2026-05-06 08:38 | 63.82625 | -23.16718 | 7504 ft | 230 kts | 105° |
| 2026-05-06 08:38 | 63.82043 | -23.13334 | 7290 ft | 226 kts | 107° |
| 2026-05-06 08:39 | 63.81479 | -23.10102 | 7091 ft | 222 kts | 104° |
| 2026-05-06 08:39 | 63.80923 | -23.06894 | 6894 ft | 217 kts | 107° |
| 2026-05-06 08:39 | 63.80373 | -23.03744 | 6714 ft | 213 kts | 104° |
| 2026-05-06 08:39 | 63.79836 | -23.00646 | 6503 ft | 210 kts | 104° |
| 2026-05-06 08:40 | 63.79301 | -22.97566 | 6306 ft | 211 kts | 105° |
| 2026-05-06 08:40 | 63.78763 | -22.94487 | 6132 ft | 211 kts | 106° |
| 2026-05-06 08:40 | 63.78229 | -22.91427 | 5934 ft | 208 kts | 108° |
| 2026-05-06 08:40 | 63.77696 | -22.88410 | 5742 ft | 204 kts | 105° |
| 2026-05-06 08:41 | 63.77181 | -22.85458 | 5522 ft | 198 kts | 106° |
| 2026-05-06 08:41 | 63.77026 | -22.82565 | 5256 ft | 183 kts | 74° |
| 2026-05-06 08:41 | 63.77406 | -22.79878 | 5043 ft | 177 kts | 70° |
| 2026-05-06 08:41 | 63.77787 | -22.77278 | 4842 ft | 171 kts | 69° |
| 2026-05-06 08:42 | 63.78161 | -22.74809 | 4682 ft | 162 kts | 69° |
| 2026-05-06 08:42 | 63.78522 | -22.72462 | 4524 ft | 153 kts | 69° |
| 2026-05-06 08:42 | 63.78868 | -22.70246 | 4308 ft | 147 kts | 69° |
| 2026-05-06 08:42 | 63.79211 | -22.68069 | 4122 ft | 149 kts | 69° |
| 2026-05-06 08:43 | 63.79562 | -22.65851 | 3966 ft | 149 kts | 69° |
| 2026-05-06 08:43 | 63.79912 | -22.63658 | 3810 ft | 146 kts | 69° |
| 2026-05-06 08:43 | 63.80368 | -22.61682 | 3619 ft | 147 kts | 45° |
| 2026-05-06 08:43 | 63.81315 | -22.60777 | 3439 ft | 154 kts | 13° |
| 2026-05-06 08:44 | 63.82407 | -22.60684 | 3305 ft | 158 kts | 9° |
| 2026-05-06 08:44 | 63.83497 | -22.60644 | 3131 ft | 153 kts | 10° |
| 2026-05-06 08:44 | 63.84532 | -22.60618 | 2908 ft | 145 kts | 10° |
| 2026-05-06 08:44 | 63.85530 | -22.60600 | 2646 ft | 141 kts | 8° |
| 2026-05-06 08:45 | 63.86500 | -22.60583 | 2390 ft | 138 kts | 7° |
| 2026-05-06 08:45 | 63.87452 | -22.60571 | 2207 ft | 135 kts | 9° |
| 2026-05-06 08:45 | 63.88352 | -22.60560 | 1972 ft | 127 kts | 9° |
| 2026-05-06 08:45 | 63.89199 | -22.60550 | 1659 ft | 117 kts | 7° |
| 2026-05-06 08:46 | 63.89970 | -22.60548 | 1425 ft | 105 kts | 8° |
| 2026-05-06 08:46 | 63.90669 | -22.60541 | 1199 ft | 102 kts | 8° |
| 2026-05-06 08:46 | 63.91378 | -22.60525 | 1163 ft | 101 kts | 9° |
| 2026-05-06 08:46 | 63.92079 | -22.60443 | 967 ft | 99 kts | 12° |
| 2026-05-06 08:47 | 63.92762 | -22.60383 | 843 ft | 100 kts | 3° |
| 2026-05-06 08:47 | 63.93466 | -22.60609 | 701 ft | 102 kts | 1° |
| 2026-05-06 08:47 | 63.94175 | -22.60645 | 545 ft | 102 kts | 9° |
| 2026-05-06 08:47 | 63.94890 | -22.60557 | 429 ft | 104 kts | 6° |
| 2026-05-06 08:48 | 63.95608 | -22.60633 | 310 ft | 102 kts | 10° |
| 2026-05-06 08:48 | 63.96301 | -22.60559 | 220 ft | 98 kts | 9° |
| 2026-05-06 08:48 | 63.96956 | -22.60549 | 147 ft | 86 kts | 4° |
| 2026-05-06 08:48 | 63.97372 | -22.60542 | 149 ft | 32 kts | 0° |
| 2026-05-06 08:49 | 63.97607 | -22.60544 | 151 ft | 35 kts | 359° |
| 2026-05-06 08:49 | 63.97843 | -22.60545 | 150 ft | 29 kts | 359° |
| 2026-05-06 08:49 | 63.98036 | -22.60561 | 151 ft | 25 kts | 350° |
| 2026-05-06 08:49 | 63.98188 | -22.60705 | 152 ft | 23 kts | 329° |
| 2026-05-06 08:50 | 63.98316 | -22.60875 | 153 ft | 19 kts | 331° |
| 2026-05-06 08:50 | 63.98394 | -22.60938 | 154 ft | 7 kts | 360° |
| 2026-05-06 08:50 | 63.98398 | -22.60938 | 154 ft | 0 kts | 0° |
| 2026-05-06 08:50 | 63.98409 | -22.60938 | 154 ft | 4 kts | 0° |
| 2026-05-06 08:51 | 63.98449 | -22.60937 | 166 ft | 8 kts | 0° |
| 2026-05-06 08:51 | 63.98511 | -22.60937 | 157 ft | 10 kts | 359° |
| 2026-05-06 08:51 | 63.98584 | -22.60942 | 158 ft | 10 kts | 359° |
| 2026-05-06 08:51 | 63.98659 | -22.60944 | 160 ft | 11 kts | 359° |
| 2026-05-06 08:52 | 63.98732 | -22.60945 | 161 ft | 10 kts | 360° |
| 2026-05-06 08:52 | 63.98805 | -22.60948 | 163 ft | 11 kts | 359° |
| 2026-05-06 08:52 | 63.98848 | -22.60965 | 164 ft | 7 kts | 325° |
| 2026-05-06 08:53 | 63.98858 | -22.60991 | 165 ft | 5 kts | 303° |
| 2026-05-06 08:53 | 63.98860 | -22.61048 | 163 ft | 5 kts | 268° |
| 2026-05-06 08:53 | 63.98857 | -22.61196 | 163 ft | 14 kts | 267° |
| 2026-05-06 08:53 | 63.98853 | -22.61461 | 162 ft | 19 kts | 269° |
| 2026-05-06 08:54 | 63.98853 | -22.61775 | 162 ft | 20 kts | 271° |
| 2026-05-06 08:54 | 63.98854 | -22.61939 | 162 ft | 2 kts | 270° |
| 2026-05-06 08:54 | 63.98854 | -22.62019 | 162 ft | 8 kts | 270° |
| 2026-05-06 08:54 | 63.98854 | -22.62173 | 163 ft | 11 kts | 270° |
| 2026-05-06 08:55 | 63.98854 | -22.62360 | 163 ft | 14 kts | 270° |
| 2026-05-06 08:55 | 63.98855 | -22.62570 | 163 ft | 10 kts | 270° |
| 2026-05-06 08:55 | 63.98855 | -22.62690 | 164 ft | 8 kts | 270° |
| 2026-05-06 08:55 | 63.98854 | -22.62762 | 164 ft | 1 kts | 269° |
| 2026-05-06 08:56 | 63.98854 | -22.62828 | 165 ft | 7 kts | 270° |
| 2026-05-06 08:56 | 63.98854 | -22.62977 | 164 ft | 12 kts | 270° |
| 2026-05-06 08:56 | 63.98854 | -22.63180 | 165 ft | 13 kts | 270° |
| 2026-05-06 08:56 | 63.98854 | -22.63408 | 166 ft | 13 kts | 270° |
| 2026-05-06 08:57 | 63.98854 | -22.63607 | 166 ft | 13 kts | 270° |
| 2026-05-06 08:57 | 63.98854 | -22.63798 | 167 ft | 11 kts | 270° |
| 2026-05-06 08:57 | 63.98878 | -22.63901 | 167 ft | 5 kts | 321° |
| 2026-05-06 08:57 | 63.98899 | -22.63939 | 167 ft | 2 kts | 322° |
| 2026-05-06 08:58 | 63.98922 | -22.63950 | 167 ft | 5 kts | 6° |
| 2026-05-06 08:58 | 63.98935 | -22.63948 | 167 ft | 0 kts | 355° |
| 2026-05-06 09:19 | 49.05765 | -118.45538 | 38901 ft | 425 kts | 54° |
| 2026-05-06 09:19 | 49.06238 | -118.44055 | 39132 ft | 407 kts | 62° |
| 2026-05-06 09:21 | 63.98931 | -22.63903 | 165 ft | 0 kts | 0° |